Time,TemperatureF,DewpointF,PressureIn,WindDirection,WindDirectionDegrees,WindSpeedMPH,WindSpeedGustMPH,Humidity,HourlyPrecipIn,Conditions,Clouds,dailyrainin,SoftwareType,DateUTC
2013-03-21 00:00:00,9.0,-1.1,30.04,NW,316,0.9,2.3,63,0.00,CLR,,0.00,WeatherDisplay:10.37,2013-03-21 05:00:00,
2013-03-21 00:02:00,9.1,-1.0,30.04,West,267,1.3,3.5,63,0.00,CLR,,0.00,WeatherDisplay:10.37,2013-03-21 05:02:00,
2013-03-21 00:03:00,9.1,-1.0,30.04,West,267,0.0,3.5,63,0.00,CLR,,0.00,WeatherDisplay:10.37,2013-03-21 05:03:00,
2013-03-21 00:04:00,9.1,-1.0,30.04,WNW,299,0.8,3.5,63,0.00,CLR,,0.00,WeatherDisplay:10.37,2013-03-21 05:04:00,
2013-03-21 00:07:00,9.0,-1.1,30.04,NW,315,1.3,1.8,63,0.00,CLR,,0.00,WeatherDisplay:10.37,2013-03-21 05:07:00,
2013-03-21 00:08:00,8.8,-1.2,30.04,NW,311,2.3,3.5,63,0.00,CLR,,0.00,WeatherDisplay:10.37,2013-03-21 05:08:00,
2013-03-21 00:09:00,8.9,-1.1,30.04,WNW,285,3.2,4.6,63,0.00,CLR,,0.00,WeatherDisplay:10.37,2013-03-21 05:09:00,
2013-03-21 00:12:00,9.0,-1.1,30.04,WNW,299,4.1,5.8,63,0.00,CLR,,0.00,WeatherDisplay:10.37,2013-03-21 05:12:00,
2013-03-21 00:14:00,8.9,-0.8,30.04,WNW,302,3.2,6.9,64,0.00,CLR,,0.00,WeatherDisplay:10.37,2013-03-21 05:14:00,
2013-03-21 00:17:00,9.0,-0.7,30.04,NNW,328,3.2,4.8,64,0.00,CLR,,0.00,WeatherDisplay:10.37,2013-03-21 05:17:00,
2013-03-21 00:19:00,8.8,-0.9,30.04,NW,316,3.2,5.8,64,0.00,CLR,,0.00,WeatherDisplay:10.37,2013-03-21 05:19:00,
2013-03-21 00:22:00,8.9,-0.8,30.04,NW,315,1.8,4.9,64,0.00,CLR,,0.00,WeatherDisplay:10.37,2013-03-21 05:22:00,
2013-03-21 00:24:00,9.0,-0.7,30.04,North,7,1.5,3.5,64,0.00,CLR,,0.00,WeatherDisplay:10.37,2013-03-21 05:24:00,
2013-03-21 00:27:00,9.1,-0.6,30.04,North,352,2.5,8.1,64,0.00,CLR,,0.00,WeatherDisplay:10.37,2013-03-21 05:27:00,
2013-03-21 00:29:00,9.1,-1.0,30.04,NW,325,2.0,5.0,63,0.00,CLR,,0.00,WeatherDisplay:10.37,2013-03-21 05:29:00,
2013-03-21 00:30:00,9.0,-1.1,30.04,NNW,328,2.9,5.8,63,0.00,CLR,,0.00,WeatherDisplay:10.37,2013-03-21 05:30:00,
2013-03-21 00:32:00,9.2,-0.9,30.04,NW,306,0.6,4.6,63,0.00,CLR,,0.00,WeatherDisplay:10.37,2013-03-21 05:32:00,
2013-03-21 00:33:00,9.1,-1.0,30.04,WNW,287,1.0,3.5,63,0.00,CLR,,0.00,WeatherDisplay:10.37,2013-03-21 05:33:00,
2013-03-21 00:34:00,9.2,-0.9,30.04,NNE,18,1.4,3.5,63,0.00,CLR,,0.00,WeatherDisplay:10.37,2013-03-21 05:34:00,
2013-03-21 00:35:00,9.1,-1.0,30.04,WSW,251,1.1,3.5,63,0.00,CLR,,0.00,WeatherDisplay:10.37,2013-03-21 05:35:00,
2013-03-21 00:38:00,9.2,-0.9,30.04,North,360,0.5,5.8,63,0.00,CLR,,0.00,WeatherDisplay:10.37,2013-03-21 05:38:00,
2013-03-21 00:40:00,9.2,-0.9,30.04,NNW,343,0.9,5.8,63,0.00,CLR,,0.00,WeatherDisplay:10.37,2013-03-21 05:40:00,
2013-03-21 00:43:00,9.1,-1.0,30.04,West,261,0.0,3.5,63,0.00,CLR,,0.00,WeatherDisplay:10.37,2013-03-21 05:43:00,
2013-03-21 00:44:00,9.1,-1.0,30.04,West,261,0.0,0.0,63,0.00,CLR,,0.00,WeatherDisplay:10.37,2013-03-21 05:44:00,
2013-03-21 00:45:00,9.1,-1.0,30.04,NW,312,0.5,1.8,63,0.00,CLR,,0.00,WeatherDisplay:10.37,2013-03-21 05:45:00,
2013-03-21 00:48:00,8.9,-1.1,30.04,NW,326,0.7,3.5,63,0.00,CLR,,0.00,WeatherDisplay:10.37,2013-03-21 05:48:00,
2013-03-21 00:49:00,9.1,-1.0,30.04,NNW,336,0.3,1.1,63,0.00,CLR,,0.00,WeatherDisplay:10.37,2013-03-21 05:49:00,
2013-03-21 00:50:00,9.1,-1.0,30.04,NW,306,2.1,6.9,63,0.00,CLR,,0.00,WeatherDisplay:10.37,2013-03-21 05:50:00,
2013-03-21 00:53:00,9.1,-1.0,30.04,NNE,23,1.3,3.5,63,0.00,CLR,,0.00,WeatherDisplay:10.37,2013-03-21 05:53:00,
2013-03-21 00:55:00,9.0,-0.7,30.04,NW,316,1.1,3.5,64,0.00,CLR,,0.00,WeatherDisplay:10.37,2013-03-21 05:55:00,
2013-03-21 00:59:00,9.0,-0.7,30.04,NW,312,1.6,5.8,64,0.00,CLR,,0.00,WeatherDisplay:10.37,2013-03-21 05:59:00,
2013-03-21 01:00:00,9.1,-0.6,30.04,NW,313,3.1,5.8,64,0.00,CLR,,0.00,WeatherDisplay:10.37,2013-03-21 06:00:00,
2013-03-21 01:04:00,9.0,-0.7,30.03,West,270,2.7,5.8,64,0.00,CLR,,0.00,WeatherDisplay:10.37,2013-03-21 06:04:00,
2013-03-21 01:05:00,8.9,-0.8,30.03,WSW,258,1.8,5.8,64,0.00,CLR,,0.00,WeatherDisplay:10.37,2013-03-21 06:05:00,
2013-03-21 01:06:00,8.9,-0.8,30.03,WNW,298,2.7,6.9,64,0.00,CLR,,0.00,WeatherDisplay:10.37,2013-03-21 06:06:00,
2013-03-21 01:09:00,9.1,-0.6,30.03,North,1,1.5,3.5,64,0.00,CLR,,0.00,WeatherDisplay:10.37,2013-03-21 06:09:00,
2013-03-21 01:10:00,8.9,-0.8,30.03,North,360,2.5,3.5,64,0.00,CLR,,0.00,WeatherDisplay:10.37,2013-03-21 06:10:00,
2013-03-21 01:11:00,8.9,-0.8,30.03,NW,325,1.8,2.7,64,0.00,CLR,,0.00,WeatherDisplay:10.37,2013-03-21 06:11:00,
2013-03-21 01:14:00,8.9,-0.8,30.03,North,356,2.7,4.6,64,0.00,CLR,,0.00,WeatherDisplay:10.37,2013-03-21 06:14:00,
2013-03-21 01:15:00,8.9,-0.8,30.03,NNW,343,2.0,3.5,64,0.00,CLR,,0.00,WeatherDisplay:10.37,2013-03-21 06:15:00,
2013-03-21 01:17:00,8.8,-0.9,30.03,WNW,288,1.4,4.6,64,0.00,CLR,,0.00,WeatherDisplay:10.37,2013-03-21 06:17:00,
2013-03-21 01:20:00,8.9,-0.8,30.03,WNW,285,1.4,3.5,64,0.00,CLR,,0.00,WeatherDisplay:10.37,2013-03-21 06:20:00,
2013-03-21 01:23:00,8.9,-0.8,30.03,NW,326,2.2,4.6,64,0.00,CLR,,0.00,WeatherDisplay:10.37,2013-03-21 06:23:00,
2013-03-21 01:25:00,8.7,-1.0,30.03,North,360,1.7,4.6,64,0.00,CLR,,0.00,WeatherDisplay:10.37,2013-03-21 06:25:00,
2013-03-21 01:26:00,8.9,-0.8,30.03,NW,311,1.6,4.6,64,0.00,CLR,,0.00,WeatherDisplay:10.37,2013-03-21 06:26:00,
2013-03-21 01:28:00,8.7,-1.0,30.03,NW,309,2.0,3.5,64,0.00,CLR,,0.00,WeatherDisplay:10.37,2013-03-21 06:28:00,
2013-03-21 01:30:00,8.7,-1.0,30.03,NW,313,1.9,3.5,64,0.00,CLR,,0.00,WeatherDisplay:10.37,2013-03-21 06:30:00,
2013-03-21 01:31:00,8.8,-0.9,30.03,NNW,336,2.9,4.6,64,0.00,CLR,,0.00,WeatherDisplay:10.37,2013-03-21 06:31:00,
2013-03-21 01:33:00,8.8,-0.9,30.03,WNW,299,0.6,1.6,64,0.00,CLR,,0.00,WeatherDisplay:10.37,2013-03-21 06:33:00,
2013-03-21 01:35:00,8.7,-1.0,30.04,WSW,254,2.4,4.6,64,0.00,CLR,,0.00,WeatherDisplay:10.37,2013-03-21 06:35:00,
2013-03-21 01:36:00,8.6,-1.1,30.04,NW,311,0.9,4.6,64,0.00,CLR,,0.00,WeatherDisplay:10.37,2013-03-21 06:36:00,
2013-03-21 01:39:00,8.6,-1.1,30.04,NW,306,1.4,2.3,64,0.00,CLR,,0.00,WeatherDisplay:10.37,2013-03-21 06:39:00,
2013-03-21 01:40:00,8.7,-1.0,30.03,NW,308,0.4,1.1,64,0.00,CLR,,0.00,WeatherDisplay:10.37,2013-03-21 06:40:00,
2013-03-21 01:41:00,8.6,-1.1,30.03,WNW,287,0.6,1.4,64,0.00,CLR,,0.00,WeatherDisplay:10.37,2013-03-21 06:41:00,
2013-03-21 01:42:00,8.4,-1.3,30.03,West,277,0.8,1.1,64,0.00,CLR,,0.00,WeatherDisplay:10.37,2013-03-21 06:42:00,
2013-03-21 01:44:00,8.4,-1.3,30.03,WNW,294,0.9,2.3,64,0.00,CLR,,0.00,WeatherDisplay:10.37,2013-03-21 06:44:00,
2013-03-21 01:45:00,8.3,-1.4,30.03,WNW,284,0.7,2.3,64,0.00,CLR,,0.00,WeatherDisplay:10.37,2013-03-21 06:45:00,
2013-03-21 01:46:00,8.5,-1.2,30.03,WNW,284,0.1,1.1,64,0.00,CLR,,0.00,WeatherDisplay:10.37,2013-03-21 06:46:00,
2013-03-21 01:47:00,8.3,-1.4,30.03,WNW,284,0.0,1.1,64,0.00,CLR,,0.00,WeatherDisplay:10.37,2013-03-21 06:47:00,
2013-03-21 01:49:00,8.3,-1.4,30.03,WNW,287,0.6,1.4,64,0.00,CLR,,0.00,WeatherDisplay:10.37,2013-03-21 06:49:00,
2013-03-21 01:50:00,8.2,-1.5,30.03,NW,304,0.0,1.1,64,0.00,CLR,,0.00,WeatherDisplay:10.37,2013-03-21 06:50:00,
2013-03-21 01:51:00,8.1,-1.6,30.03,NW,304,0.0,0.0,64,0.00,CLR,,0.00,WeatherDisplay:10.37,2013-03-21 06:51:00,
2013-03-21 01:52:00,8.1,-1.6,30.03,WNW,291,0.1,0.2,64,0.00,CLR,,0.00,WeatherDisplay:10.37,2013-03-21 06:52:00,
2013-03-21 01:54:00,7.9,-1.8,30.03,WNW,288,0.3,0.0,64,0.00,CLR,,0.00,WeatherDisplay:10.37,2013-03-21 06:54:00,
2013-03-21 01:56:00,7.9,-1.8,30.03,WNW,288,0.0,0.0,64,0.00,CLR,,0.00,WeatherDisplay:10.37,2013-03-21 06:56:00,
2013-03-21 01:57:00,7.9,-1.8,30.03,WNW,288,0.0,0.0,64,0.00,CLR,,0.00,WeatherDisplay:10.37,2013-03-21 06:57:00,
2013-03-21 01:59:00,7.8,-1.9,30.03,WNW,288,0.0,0.0,64,0.00,CLR,,0.00,WeatherDisplay:10.37,2013-03-21 06:59:00,
2013-03-21 02:01:00,7.7,-2.0,30.03,WNW,294,2.1,4.2,64,0.00,CLR,,0.00,WeatherDisplay:10.37,2013-03-21 07:01:00,
2013-03-21 02:02:00,7.6,-2.1,30.03,WNW,294,1.0,4.6,64,0.00,CLR,,0.00,WeatherDisplay:10.37,2013-03-21 07:02:00,
2013-03-21 02:04:00,7.4,-2.2,30.03,NNW,339,1.2,2.3,64,0.00,CLR,,0.00,WeatherDisplay:10.37,2013-03-21 07:04:00,
2013-03-21 02:06:00,7.3,-2.0,30.03,NW,309,1.1,3.5,65,0.00,CLR,,0.00,WeatherDisplay:10.37,2013-03-21 07:06:00,
2013-03-21 02:07:00,7.4,-1.9,30.03,NW,309,0.1,3.5,65,0.00,CLR,,0.00,WeatherDisplay:10.37,2013-03-21 07:07:00,
2013-03-21 02:09:00,7.3,-2.0,30.03,WSW,244,1.9,3.5,65,0.00,CLR,,0.00,WeatherDisplay:10.37,2013-03-21 07:09:00,
2013-03-21 02:12:00,7.2,-1.8,30.03,NW,313,2.2,4.6,66,0.00,CLR,,0.00,WeatherDisplay:10.37,2013-03-21 07:12:00,
2013-03-21 02:14:00,7.3,-1.7,30.03,North,360,3.4,5.8,66,0.00,CLR,,0.00,WeatherDisplay:10.37,2013-03-21 07:14:00,
2013-03-21 02:17:00,7.4,-1.6,30.03,North,356,2.3,5.8,66,0.00,CLR,,0.00,WeatherDisplay:10.37,2013-03-21 07:17:00,
2013-03-21 02:18:00,7.5,-1.5,30.03,NNW,333,2.5,5.8,66,0.00,CLR,,0.00,WeatherDisplay:10.37,2013-03-21 07:18:00,
2013-03-21 02:19:00,7.4,-1.6,30.03,NNW,333,2.1,3.5,66,0.00,CLR,,0.00,WeatherDisplay:10.37,2013-03-21 07:19:00,
2013-03-21 02:22:00,7.6,-1.4,30.03,NW,309,3.0,6.0,66,0.00,CLR,,0.00,WeatherDisplay:10.37,2013-03-21 07:22:00,
2013-03-21 02:23:00,7.7,-1.3,30.03,NW,319,1.7,5.8,66,0.00,CLR,,0.00,WeatherDisplay:10.37,2013-03-21 07:23:00,
2013-03-21 02:24:00,7.7,-1.3,30.03,NW,308,1.6,4.6,66,0.00,CLR,,0.00,WeatherDisplay:10.37,2013-03-21 07:24:00,
2013-03-21 02:27:00,7.8,-1.2,30.03,NW,305,1.5,3.0,66,0.00,CLR,,0.00,WeatherDisplay:10.37,2013-03-21 07:27:00,
2013-03-21 02:28:00,7.8,-1.2,30.03,NNE,14,2.8,5.8,66,0.00,CLR,,0.00,WeatherDisplay:10.37,2013-03-21 07:28:00,
2013-03-21 02:29:00,7.8,-1.2,30.03,West,272,2.3,4.6,66,0.00,CLR,,0.00,WeatherDisplay:10.37,2013-03-21 07:29:00,
2013-03-21 02:32:00,7.9,-1.1,30.03,NW,315,0.4,3.5,66,0.00,CLR,,0.00,WeatherDisplay:10.37,2013-03-21 07:32:00,
2013-03-21 02:33:00,7.9,-1.1,30.03,NW,322,0.7,5.0,66,0.00,CLR,,0.00,WeatherDisplay:10.37,2013-03-21 07:33:00,
2013-03-21 02:34:00,7.8,-1.2,30.03,West,265,1.8,4.6,66,0.00,CLR,,0.00,WeatherDisplay:10.37,2013-03-21 07:34:00,
2013-03-21 02:37:00,8.0,-1.0,30.03,NW,308,1.0,2.1,66,0.00,CLR,,0.00,WeatherDisplay:10.37,2013-03-21 07:37:00,
2013-03-21 02:38:00,8.0,-1.0,30.03,NW,315,1.0,1.6,66,0.00,CLR,,0.00,WeatherDisplay:10.37,2013-03-21 07:38:00,
2013-03-21 02:39:00,8.0,-1.0,30.03,WSW,240,1.1,2.3,66,0.00,CLR,,0.00,WeatherDisplay:10.37,2013-03-21 07:39:00,
2013-03-21 02:42:00,7.9,-1.1,30.02,West,274,2.0,3.5,66,0.00,CLR,,0.00,WeatherDisplay:10.37,2013-03-21 07:42:00,
2013-03-21 02:43:00,8.0,-1.0,30.02,NW,315,1.0,3.5,66,0.00,CLR,,0.00,WeatherDisplay:10.37,2013-03-21 07:43:00,
2013-03-21 02:44:00,8.0,-1.0,30.02,NNW,332,1.5,2.3,66,0.00,CLR,,0.00,WeatherDisplay:10.37,2013-03-21 07:44:00,
2013-03-21 02:47:00,7.9,-1.1,30.02,WNW,292,0.2,1.1,66,0.00,CLR,,0.00,WeatherDisplay:10.37,2013-03-21 07:47:00,
2013-03-21 02:48:00,7.8,-1.2,30.02,NW,318,0.3,1.2,66,0.00,CLR,,0.00,WeatherDisplay:10.37,2013-03-21 07:48:00,
2013-03-21 02:49:00,7.8,-1.2,30.02,West,265,0.0,1.1,66,0.00,CLR,,0.00,WeatherDisplay:10.37,2013-03-21 07:49:00,
2013-03-21 02:52:00,7.7,-1.3,30.02,NW,320,0.0,2.3,66,0.00,CLR,,0.00,WeatherDisplay:10.37,2013-03-21 07:52:00,
2013-03-21 02:53:00,7.6,-1.4,30.02,NW,320,0.0,0.0,66,0.00,CLR,,0.00,WeatherDisplay:10.37,2013-03-21 07:53:00,
2013-03-21 02:54:00,7.5,-1.5,30.02,West,271,0.6,2.3,66,0.00,CLR,,0.00,WeatherDisplay:10.37,2013-03-21 07:54:00,
2013-03-21 02:58:00,7.6,-1.4,30.02,NW,309,0.0,1.1,66,0.00,CLR,,0.00,WeatherDisplay:10.37,2013-03-21 07:58:00,
2013-03-21 02:59:00,7.5,-1.5,30.02,NW,309,0.0,0.0,66,0.00,CLR,,0.00,WeatherDisplay:10.37,2013-03-21 07:59:00,
2013-03-21 03:03:00,7.3,-1.7,30.02,NW,309,0.0,0.0,66,0.00,CLR,,0.00,WeatherDisplay:10.37,2013-03-21 08:03:00,
2013-03-21 03:04:00,7.5,-1.5,30.02,NW,309,0.0,0.0,66,0.00,CLR,,0.00,WeatherDisplay:10.37,2013-03-21 08:04:00,
2013-03-21 03:05:00,7.2,-1.8,30.02,NW,309,0.0,0.0,66,0.00,CLR,,0.00,WeatherDisplay:10.37,2013-03-21 08:05:00,
2013-03-21 03:08:00,7.0,-2.0,30.02,NW,309,0.0,0.0,66,0.00,CLR,,0.00,WeatherDisplay:10.37,2013-03-21 08:08:00,
2013-03-21 03:09:00,7.2,-1.8,30.02,NW,309,0.0,0.0,66,0.00,CLR,,0.00,WeatherDisplay:10.37,2013-03-21 08:09:00,
2013-03-21 03:10:00,7.2,-1.8,30.02,NW,309,0.0,0.0,66,0.00,CLR,,0.00,WeatherDisplay:10.37,2013-03-21 08:10:00,
2013-03-21 03:13:00,7.0,-1.7,30.02,NW,309,0.0,0.0,67,0.00,CLR,,0.00,WeatherDisplay:10.37,2013-03-21 08:13:00,
2013-03-21 03:14:00,6.9,-1.8,30.02,WNW,285,1.5,3.5,67,0.00,CLR,,0.00,WeatherDisplay:10.37,2013-03-21 08:14:00,
2013-03-21 03:15:00,7.0,-1.7,30.02,WNW,285,0.7,3.5,67,0.00,CLR,,0.00,WeatherDisplay:10.37,2013-03-21 08:15:00,
2013-03-21 03:18:00,6.9,-1.8,30.02,WNW,285,0.0,0.0,67,0.00,CLR,,0.00,WeatherDisplay:10.37,2013-03-21 08:18:00,
2013-03-21 03:19:00,6.8,-1.8,30.02,WNW,285,0.0,0.0,67,0.00,CLR,,0.00,WeatherDisplay:10.37,2013-03-21 08:19:00,
2013-03-21 03:20:00,6.8,-1.8,30.02,WNW,285,0.0,0.0,67,0.00,CLR,,0.00,WeatherDisplay:10.37,2013-03-21 08:20:00,
2013-03-21 03:23:00,6.9,-1.8,30.02,WNW,285,0.0,0.0,67,0.00,CLR,,0.00,WeatherDisplay:10.37,2013-03-21 08:23:00,
2013-03-21 03:25:00,6.7,-1.9,30.02,WNW,285,0.0,0.0,67,0.00,CLR,,0.00,WeatherDisplay:10.37,2013-03-21 08:25:00,
2013-03-21 03:28:00,6.8,-1.8,30.02,West,281,0.0,0.0,67,0.00,CLR,,0.00,WeatherDisplay:10.37,2013-03-21 08:28:00,
2013-03-21 03:29:00,6.8,-1.8,30.02,West,281,0.0,0.0,67,0.00,CLR,,0.00,WeatherDisplay:10.37,2013-03-21 08:29:00,
2013-03-21 03:30:00,6.6,-1.7,30.02,West,281,0.0,0.0,68,0.00,CLR,,0.00,WeatherDisplay:10.37,2013-03-21 08:30:00,
2013-03-21 03:33:00,6.8,-1.5,30.01,West,281,0.0,0.0,68,0.00,CLR,,0.00,WeatherDisplay:10.37,2013-03-21 08:33:00,
2013-03-21 03:34:00,6.6,-1.7,30.01,West,281,0.0,0.0,68,0.00,CLR,,0.00,WeatherDisplay:10.37,2013-03-21 08:34:00,
2013-03-21 03:35:00,6.7,-1.6,30.01,West,281,0.0,0.0,68,0.00,CLR,,0.00,WeatherDisplay:10.37,2013-03-21 08:35:00,
2013-03-21 03:36:00,6.9,-1.4,30.01,West,281,0.0,0.0,68,0.00,CLR,,0.00,WeatherDisplay:10.37,2013-03-21 08:36:00,
2013-03-21 03:38:00,6.8,-1.5,30.01,WNW,291,0.7,2.3,68,0.00,CLR,,0.00,WeatherDisplay:10.37,2013-03-21 08:38:00,
2013-03-21 03:39:00,6.7,-1.6,30.01,WNW,291,0.2,1.1,68,0.00,CLR,,0.00,WeatherDisplay:10.37,2013-03-21 08:39:00,
2013-03-21 03:40:00,6.7,-1.6,30.01,NW,320,0.2,1.1,68,0.00,CLR,,0.00,WeatherDisplay:10.37,2013-03-21 08:40:00,
2013-03-21 03:41:00,6.8,-1.5,30.01,NW,320,0.0,1.1,68,0.00,CLR,,0.00,WeatherDisplay:10.37,2013-03-21 08:41:00,
2013-03-21 03:44:00,6.6,-1.7,30.01,NW,320,0.0,0.0,68,0.00,CLR,,0.00,WeatherDisplay:10.37,2013-03-21 08:44:00,
2013-03-21 03:46:00,6.6,-1.7,30.01,NW,320,0.0,0.0,68,0.00,CLR,,0.00,WeatherDisplay:10.37,2013-03-21 08:46:00,
2013-03-21 03:49:00,6.5,-1.8,30.01,NW,320,0.0,0.0,68,0.00,CLR,,0.00,WeatherDisplay:10.37,2013-03-21 08:49:00,
2013-03-21 03:51:00,6.5,-1.8,30.01,NW,320,0.0,0.0,68,0.00,CLR,,0.00,WeatherDisplay:10.37,2013-03-21 08:51:00,
2013-03-21 03:54:00,6.5,-1.8,30.01,NW,320,0.0,0.0,68,0.00,CLR,,0.00,WeatherDisplay:10.37,2013-03-21 08:54:00,
2013-03-21 03:56:00,6.3,-2.0,30.01,NW,320,0.0,0.0,68,0.00,CLR,,0.00,WeatherDisplay:10.37,2013-03-21 08:56:00,
2013-03-21 03:57:00,6.2,-2.1,30.01,NW,320,0.0,0.0,68,0.00,CLR,,0.00,WeatherDisplay:10.37,2013-03-21 08:57:00,
2013-03-21 03:59:00,6.2,-2.1,30.01,NW,320,0.0,0.0,68,0.00,CLR,,0.00,WeatherDisplay:10.37,2013-03-21 08:59:00,
2013-03-21 04:01:00,6.2,-2.1,30.01,NW,320,0.0,0.0,68,0.00,CLR,,0.00,WeatherDisplay:10.37,2013-03-21 09:01:00,
2013-03-21 04:02:00,6.1,-2.2,30.01,NW,320,0.0,0.0,68,0.00,CLR,,0.00,WeatherDisplay:10.37,2013-03-21 09:02:00,
2013-03-21 04:04:00,6.0,-2.3,30.01,NW,320,0.0,0.0,68,0.00,CLR,,0.00,WeatherDisplay:10.37,2013-03-21 09:04:00,
2013-03-21 04:05:00,6.0,-2.3,30.01,NW,320,0.0,0.0,68,0.00,CLR,,0.00,WeatherDisplay:10.37,2013-03-21 09:05:00,
2013-03-21 04:07:00,6.0,-2.3,30.01,NW,320,0.0,0.0,68,0.00,CLR,,0.00,WeatherDisplay:10.37,2013-03-21 09:07:00,
2013-03-21 04:08:00,6.0,-2.3,30.01,NW,320,0.0,0.0,68,0.00,CLR,,0.00,WeatherDisplay:10.37,2013-03-21 09:08:00,
2013-03-21 04:09:00,5.9,-2.4,30.01,NW,320,0.0,0.0,68,0.00,CLR,,0.00,WeatherDisplay:10.37,2013-03-21 09:09:00,
2013-03-21 04:10:00,5.8,-2.5,30.01,NW,320,0.0,0.0,68,0.00,CLR,,0.00,WeatherDisplay:10.37,2013-03-21 09:10:00,
2013-03-21 04:12:00,5.8,-2.5,30.01,NW,320,0.0,0.0,68,0.00,CLR,,0.00,WeatherDisplay:10.37,2013-03-21 09:12:00,
2013-03-21 04:13:00,5.9,-2.4,30.01,NW,320,0.0,0.0,68,0.00,CLR,,0.00,WeatherDisplay:10.37,2013-03-21 09:13:00,
2013-03-21 04:14:00,5.8,-2.5,30.01,NW,320,0.0,0.0,68,0.00,CLR,,0.00,WeatherDisplay:10.37,2013-03-21 09:14:00,
2013-03-21 04:15:00,5.8,-2.5,30.01,NW,320,0.0,0.0,68,0.00,CLR,,0.00,WeatherDisplay:10.37,2013-03-21 09:15:00,
2013-03-21 04:17:00,5.7,-2.6,30.01,NW,320,0.0,0.0,68,0.00,CLR,,0.00,WeatherDisplay:10.37,2013-03-21 09:17:00,
2013-03-21 04:18:00,5.7,-2.6,30.01,NW,320,0.0,0.0,68,0.00,CLR,,0.00,WeatherDisplay:10.37,2013-03-21 09:18:00,
2013-03-21 04:19:00,5.6,-2.7,30.01,NW,320,0.0,0.0,68,0.00,CLR,,0.00,WeatherDisplay:10.37,2013-03-21 09:19:00,
2013-03-21 04:20:00,5.7,-2.6,30.01,NW,308,0.4,1.1,68,0.00,CLR,,0.00,WeatherDisplay:10.37,2013-03-21 09:20:00,
2013-03-21 04:22:00,5.7,-2.6,30.01,West,267,0.6,0.0,68,0.00,CLR,,0.00,WeatherDisplay:10.37,2013-03-21 09:22:00,
2013-03-21 04:23:00,5.5,-2.8,30.01,WNW,295,0.4,2.3,68,0.00,CLR,,0.00,WeatherDisplay:10.37,2013-03-21 09:23:00,
2013-03-21 04:24:00,5.5,-2.5,30.01,WNW,295,0.0,1.1,69,0.00,CLR,,0.00,WeatherDisplay:10.37,2013-03-21 09:24:00,
2013-03-21 04:25:00,5.5,-2.5,30.01,WNW,295,0.0,0.0,69,0.00,CLR,,0.00,WeatherDisplay:10.37,2013-03-21 09:25:00,
2013-03-21 04:27:00,5.5,-2.5,30.01,NW,311,2.4,4.6,69,0.00,CLR,,0.00,WeatherDisplay:10.37,2013-03-21 09:27:00,
2013-03-21 04:28:00,5.5,-2.5,30.01,NW,311,1.3,4.6,69,0.00,CLR,,0.00,WeatherDisplay:10.37,2013-03-21 09:28:00,
2013-03-21 04:29:00,5.6,-2.4,30.01,NW,311,0.0,0.0,69,0.00,CLR,,0.00,WeatherDisplay:10.37,2013-03-21 09:29:00,
2013-03-21 04:30:00,5.5,-2.5,30.01,NW,311,0.0,0.0,69,0.00,CLR,,0.00,WeatherDisplay:10.37,2013-03-21 09:30:00,
2013-03-21 04:32:00,5.6,-2.4,30.01,NW,311,0.0,0.0,69,0.00,CLR,,0.00,WeatherDisplay:10.37,2013-03-21 09:32:00,
2013-03-21 04:33:00,5.6,-2.4,30.01,NW,311,0.0,0.0,69,0.00,CLR,,0.00,WeatherDisplay:10.37,2013-03-21 09:33:00,
2013-03-21 04:34:00,5.5,-2.5,30.01,NW,311,0.0,0.0,69,0.00,CLR,,0.00,WeatherDisplay:10.37,2013-03-21 09:34:00,
2013-03-21 04:35:00,5.7,-2.3,30.01,NW,311,0.0,0.0,69,0.00,CLR,,0.00,WeatherDisplay:10.37,2013-03-21 09:35:00,
2013-03-21 04:38:00,5.5,-2.5,30.01,NW,311,0.0,0.0,69,0.00,CLR,,0.00,WeatherDisplay:10.37,2013-03-21 09:38:00,
2013-03-21 04:39:00,5.6,-2.4,30.01,NW,311,0.0,0.0,69,0.00,CLR,,0.00,WeatherDisplay:10.37,2013-03-21 09:39:00,
2013-03-21 04:41:00,5.6,-2.4,30.01,NW,311,0.0,0.0,69,0.00,CLR,,0.00,WeatherDisplay:10.37,2013-03-21 09:41:00,
2013-03-21 04:43:00,5.4,-2.6,30.01,NW,311,0.0,0.0,69,0.00,CLR,,0.00,WeatherDisplay:10.37,2013-03-21 09:43:00,
2013-03-21 04:44:00,5.6,-2.4,30.01,NW,311,0.0,0.0,69,0.00,CLR,,0.00,WeatherDisplay:10.37,2013-03-21 09:44:00,
2013-03-21 04:46:00,5.6,-2.4,30.01,NW,311,0.0,0.0,69,0.00,CLR,,0.00,WeatherDisplay:10.37,2013-03-21 09:46:00,
2013-03-21 04:48:00,5.6,-2.1,30.01,NW,311,0.0,0.0,70,0.00,CLR,,0.00,WeatherDisplay:10.37,2013-03-21 09:48:00,
2013-03-21 04:49:00,5.5,-2.2,30.01,WNW,298,0.0,1.7,70,0.00,CLR,,0.00,WeatherDisplay:10.37,2013-03-21 09:49:00,
2013-03-21 04:51:00,5.6,-2.1,30.01,WNW,301,0.0,0.0,70,0.00,CLR,,0.00,WeatherDisplay:10.37,2013-03-21 09:51:00,
2013-03-21 04:54:00,5.7,-2.0,30.01,West,260,1.0,3.5,70,0.00,CLR,,0.00,WeatherDisplay:10.37,2013-03-21 09:54:00,
2013-03-21 04:56:00,5.7,-2.0,30.01,North,353,2.0,3.5,70,0.00,CLR,,0.00,WeatherDisplay:10.37,2013-03-21 09:56:00,
2013-03-21 04:59:00,5.9,-1.8,30.01,NW,305,0.0,0.0,70,0.00,CLR,,0.00,WeatherDisplay:10.37,2013-03-21 09:59:00,
2013-03-21 05:00:00,5.9,-1.8,30.01,NW,305,0.0,0.0,70,0.00,CLR,,0.00,WeatherDisplay:10.37,2013-03-21 10:00:00,
2013-03-21 05:01:00,5.8,-1.9,30.01,NW,305,0.0,0.0,70,0.00,CLR,,0.00,WeatherDisplay:10.37,2013-03-21 10:01:00,
2013-03-21 05:04:00,6.0,-1.7,30.01,NW,311,3.0,4.6,70,0.00,CLR,,0.00,WeatherDisplay:10.37,2013-03-21 10:04:00,
2013-03-21 05:05:00,6.1,-1.6,30.01,NW,323,1.7,5.8,70,0.00,CLR,,0.00,WeatherDisplay:10.37,2013-03-21 10:05:00,
2013-03-21 05:06:00,6.1,-1.6,30.01,NW,309,2.8,6.0,70,0.00,CLR,,0.00,WeatherDisplay:10.37,2013-03-21 10:06:00,
2013-03-21 05:09:00,6.2,-1.5,30.01,WNW,292,2.9,5.8,70,0.00,CLR,,0.00,WeatherDisplay:10.37,2013-03-21 10:09:00,
2013-03-21 05:10:00,6.2,-1.5,30.01,NW,308,2.4,4.6,70,0.00,CLR,,0.00,WeatherDisplay:10.37,2013-03-21 10:10:00,
2013-03-21 05:11:00,6.3,-1.4,30.01,North,357,1.1,3.5,70,0.00,CLR,,0.00,WeatherDisplay:10.37,2013-03-21 10:11:00,
2013-03-21 05:14:00,6.4,-1.3,30.01,WSW,258,1.9,3.5,70,0.00,CLR,,0.00,WeatherDisplay:10.37,2013-03-21 10:14:00,
2013-03-21 05:15:00,6.4,-1.3,30.01,NW,304,3.0,3.5,70,0.00,CLR,,0.00,WeatherDisplay:10.37,2013-03-21 10:15:00,
2013-03-21 05:17:00,6.4,-1.3,30.01,NW,319,0.0,0.0,70,0.00,CLR,,0.00,WeatherDisplay:10.37,2013-03-21 10:17:00,
2013-03-21 05:19:00,6.5,-1.2,30.01,WNW,294,1.4,3.5,70,0.00,CLR,,0.00,WeatherDisplay:10.37,2013-03-21 10:19:00,
2013-03-21 05:20:00,6.5,-1.2,30.01,WNW,294,0.0,1.1,70,0.00,CLR,,0.00,WeatherDisplay:10.37,2013-03-21 10:20:00,
2013-03-21 05:22:00,6.5,-1.2,30.01,WNW,294,0.0,0.0,70,0.00,CLR,,0.00,WeatherDisplay:10.37,2013-03-21 10:22:00,
2013-03-21 05:25:00,6.6,-1.1,30.01,WNW,294,0.0,0.0,70,0.00,CLR,,0.00,WeatherDisplay:10.37,2013-03-21 10:25:00,
2013-03-21 05:27:00,6.6,-1.4,30.01,WNW,294,0.0,0.0,69,0.00,CLR,,0.00,WeatherDisplay:10.37,2013-03-21 10:27:00,
2013-03-21 05:30:00,6.5,-1.5,30.01,WNW,294,0.0,0.0,69,0.00,CLR,,0.00,WeatherDisplay:10.37,2013-03-21 10:30:00,
2013-03-21 05:32:00,6.4,-1.6,30.01,WNW,294,0.0,0.0,69,0.00,CLR,,0.00,WeatherDisplay:10.37,2013-03-21 10:32:00,
2013-03-21 05:35:00,6.4,-1.6,30.01,WNW,294,0.0,0.0,69,0.00,CLR,,0.00,WeatherDisplay:10.37,2013-03-21 10:35:00,
2013-03-21 05:36:00,6.3,-1.7,30.01,WNW,294,0.0,0.0,69,0.00,CLR,,0.00,WeatherDisplay:10.37,2013-03-21 10:36:00,
2013-03-21 05:37:00,6.3,-1.7,30.01,WNW,294,0.0,0.0,69,0.00,CLR,,0.00,WeatherDisplay:10.37,2013-03-21 10:37:00,
2013-03-21 05:40:00,6.4,-1.6,30.01,WNW,294,0.0,0.0,69,0.00,CLR,,0.00,WeatherDisplay:10.37,2013-03-21 10:40:00,
2013-03-21 05:41:00,6.3,-1.7,30.01,WNW,294,0.0,0.0,69,0.00,CLR,,0.00,WeatherDisplay:10.37,2013-03-21 10:41:00,
2013-03-21 05:42:00,6.2,-1.8,30.01,WNW,294,0.0,0.0,69,0.00,CLR,,0.00,WeatherDisplay:10.37,2013-03-21 10:42:00,
2013-03-21 05:43:00,6.3,-1.4,30.01,WNW,295,0.5,3.3,70,0.00,CLR,,0.00,WeatherDisplay:10.37,2013-03-21 10:43:00,
2013-03-21 05:45:00,6.1,-1.6,30.01,West,267,0.0,1.1,70,0.00,CLR,,0.00,WeatherDisplay:10.37,2013-03-21 10:45:00,
2013-03-21 05:47:00,6.2,-1.5,30.01,West,267,0.0,0.0,70,0.00,CLR,,0.00,WeatherDisplay:10.37,2013-03-21 10:47:00,
2013-03-21 05:48:00,6.2,-1.5,30.01,West,267,0.0,0.0,70,0.00,CLR,,0.00,WeatherDisplay:10.37,2013-03-21 10:48:00,
2013-03-21 05:50:00,6.1,-1.6,30.01,West,267,0.0,0.0,70,0.00,CLR,,0.00,WeatherDisplay:10.37,2013-03-21 10:50:00,
2013-03-21 05:52:00,6.0,-1.7,30.01,West,278,0.8,2.3,70,0.00,CLR,,0.00,WeatherDisplay:10.37,2013-03-21 10:52:00,
2013-03-21 05:53:00,6.0,-1.7,30.01,WSW,241,0.6,1.1,70,0.00,CLR,,0.00,WeatherDisplay:10.37,2013-03-21 10:53:00,
2013-03-21 05:55:00,6.0,-1.7,30.01,WSW,239,0.0,0.0,70,0.00,CLR,,0.00,WeatherDisplay:10.37,2013-03-21 10:55:00,
2013-03-21 05:57:00,6.0,-1.7,30.01,WSW,239,0.0,0.0,70,0.00,CLR,,0.00,WeatherDisplay:10.37,2013-03-21 10:57:00,
2013-03-21 05:58:00,6.1,-1.6,30.01,WSW,239,0.0,0.0,70,0.00,CLR,,0.00,WeatherDisplay:10.37,2013-03-21 10:58:00,
2013-03-21 06:00:00,5.9,-1.8,30.01,WSW,239,0.0,0.0,70,0.00,CLR,,0.00,WeatherDisplay:10.37,2013-03-21 11:00:00,
2013-03-21 06:02:00,5.9,-1.8,30.01,WSW,239,0.0,0.0,70,0.00,CLR,,0.00,WeatherDisplay:10.37,2013-03-21 11:02:00,
2013-03-21 06:03:00,5.8,-1.9,30.01,WSW,239,0.0,0.0,70,0.00,CLR,,0.00,WeatherDisplay:10.37,2013-03-21 11:03:00,
2013-03-21 06:05:00,6.0,-1.7,30.01,WSW,239,0.0,0.0,70,0.00,CLR,,0.00,WeatherDisplay:10.37,2013-03-21 11:05:00,
2013-03-21 06:08:00,5.9,-1.5,30.01,WNW,296,0.0,1.1,71,0.00,CLR,,0.00,WeatherDisplay:10.37,2013-03-21 11:08:00,
2013-03-21 06:10:00,6.0,-1.4,30.01,NW,308,0.0,2.3,71,0.00,CLR,,0.00,WeatherDisplay:10.37,2013-03-21 11:10:00,
2013-03-21 06:13:00,6.1,-1.3,30.01,NW,308,0.0,0.0,71,0.00,CLR,,0.00,WeatherDisplay:10.37,2013-03-21 11:13:00,
2013-03-21 06:15:00,6.2,-1.2,30.01,NW,308,0.0,0.0,71,0.00,CLR,,0.00,WeatherDisplay:10.37,2013-03-21 11:15:00,
2013-03-21 06:18:00,6.2,-1.2,30.01,NW,315,1.4,3.5,71,0.00,CLR,,0.00,WeatherDisplay:10.37,2013-03-21 11:18:00,
2013-03-21 06:19:00,6.3,-1.1,30.01,NW,325,1.5,4.0,71,0.00,CLR,,0.00,WeatherDisplay:10.37,2013-03-21 11:19:00,
2013-03-21 06:20:00,6.2,-1.2,30.01,WNW,295,2.3,4.6,71,0.00,CLR,,0.00,WeatherDisplay:10.37,2013-03-21 11:20:00,
2013-03-21 06:24:00,6.3,-1.1,30.01,NW,309,0.5,2.8,71,0.00,CLR,,0.00,WeatherDisplay:10.37,2013-03-21 11:24:00,
2013-03-21 06:25:00,6.4,-1.0,30.01,WNW,298,1.0,2.3,71,0.00,CLR,,0.00,WeatherDisplay:10.37,2013-03-21 11:25:00,
2013-03-21 06:29:00,6.4,-1.0,30.01,NW,309,0.0,1.1,71,0.00,CLR,,0.00,WeatherDisplay:10.37,2013-03-21 11:29:00,
2013-03-21 06:30:00,6.4,-1.0,30.01,NW,309,0.0,0.0,71,0.00,CLR,,0.00,WeatherDisplay:10.37,2013-03-21 11:30:00,
2013-03-21 06:34:00,6.4,-1.0,30.01,NW,309,0.0,0.0,71,0.00,CLR,,0.00,WeatherDisplay:10.37,2013-03-21 11:34:00,
2013-03-21 06:35:00,6.5,-0.9,30.01,NW,309,0.0,0.0,71,0.00,CLR,,0.00,WeatherDisplay:10.37,2013-03-21 11:35:00,
2013-03-21 06:39:00,6.4,-1.0,30.01,NW,323,0.2,4.7,71,0.00,CLR,,0.00,WeatherDisplay:10.37,2013-03-21 11:39:00,
2013-03-21 06:40:00,6.4,-1.0,30.01,NW,306,1.4,4.6,71,0.00,CLR,,0.00,WeatherDisplay:10.37,2013-03-21 11:40:00,
2013-03-21 06:41:00,6.4,-1.0,30.01,NW,311,3.2,4.6,71,0.00,CLR,,0.00,WeatherDisplay:10.37,2013-03-21 11:41:00,
2013-03-21 06:44:00,6.5,-0.9,30.01,West,281,0.0,0.0,71,0.00,CLR,,0.00,WeatherDisplay:10.37,2013-03-21 11:44:00,
2013-03-21 06:45:00,6.6,-0.8,30.01,West,281,0.0,0.0,71,0.00,CLR,,0.00,WeatherDisplay:10.37,2013-03-21 11:45:00,
2013-03-21 06:46:00,6.5,-0.9,30.01,North,350,0.8,3.5,71,0.00,CLR,,0.00,WeatherDisplay:10.37,2013-03-21 11:46:00,
2013-03-21 06:49:00,6.6,-0.8,30.01,NW,318,0.0,0.0,71,0.00,CLR,,0.00,WeatherDisplay:10.37,2013-03-21 11:49:00,
2013-03-21 06:50:00,6.6,-0.8,30.01,NW,318,0.0,0.0,71,0.00,CLR,,0.00,WeatherDisplay:10.37,2013-03-21 11:50:00,
2013-03-21 06:51:00,6.5,-0.9,30.01,NW,318,0.0,0.0,71,0.00,CLR,,0.00,WeatherDisplay:10.37,2013-03-21 11:51:00,
2013-03-21 06:52:00,6.6,-0.8,30.01,NW,318,0.0,0.0,71,0.00,CLR,,0.00,WeatherDisplay:10.37,2013-03-21 11:52:00,
2013-03-21 06:55:00,6.6,-0.8,30.01,WNW,287,0.0,0.0,71,0.00,CLR,,0.00,WeatherDisplay:10.37,2013-03-21 11:55:00,
2013-03-21 06:56:00,6.5,-0.9,30.01,WNW,287,0.0,0.0,71,0.00,CLR,,0.00,WeatherDisplay:10.37,2013-03-21 11:56:00,
2013-03-21 06:57:00,6.6,-0.8,30.01,NW,311,2.6,4.2,71,0.00,CLR,,0.00,WeatherDisplay:10.37,2013-03-21 11:57:00,
2013-03-21 07:00:00,6.6,-0.8,30.01,West,280,2.5,4.6,71,0.00,CLR,,0.00,WeatherDisplay:10.37,2013-03-21 12:00:00,
2013-03-21 07:01:00,6.7,-0.7,30.01,NNW,337,0.1,3.5,71,0.00,CLR,,0.00,WeatherDisplay:10.37,2013-03-21 12:01:00,
2013-03-21 07:02:00,6.7,-0.7,30.01,NNW,337,0.0,0.0,71,0.00,CLR,,0.00,WeatherDisplay:10.37,2013-03-21 12:02:00,
2013-03-21 07:05:00,6.9,-0.5,30.01,NNW,337,0.0,0.0,71,0.00,CLR,,0.00,WeatherDisplay:10.37,2013-03-21 12:05:00,
2013-03-21 07:08:00,6.7,-0.7,30.01,NNW,337,0.0,0.0,71,0.00,CLR,,0.00,WeatherDisplay:10.37,2013-03-21 12:08:00,
2013-03-21 07:10:00,6.6,-0.8,30.01,NNW,337,0.0,0.0,71,0.00,CLR,,0.00,WeatherDisplay:10.37,2013-03-21 12:10:00,
2013-03-21 07:12:00,6.6,-0.8,30.02,NNW,337,0.0,0.0,71,0.00,CLR,,0.00,WeatherDisplay:10.37,2013-03-21 12:12:00,
2013-03-21 07:13:00,6.7,-0.7,30.02,NNW,337,0.0,0.0,71,0.00,CLR,,0.00,WeatherDisplay:10.37,2013-03-21 12:13:00,
2013-03-21 07:16:00,6.6,-0.8,30.02,NNW,337,0.0,0.0,71,0.00,CLR,,0.00,WeatherDisplay:10.37,2013-03-21 12:16:00,
2013-03-21 07:17:00,6.7,-0.7,30.02,WNW,294,0.3,1.4,71,0.00,CLR,,0.00,WeatherDisplay:10.37,2013-03-21 12:17:00,
2013-03-21 07:18:00,6.7,-0.7,30.02,North,3,0.9,2.3,71,0.00,CLR,,0.00,WeatherDisplay:10.37,2013-03-21 12:18:00,
2013-03-21 07:21:00,6.6,-0.8,30.02,WNW,285,1.2,2.3,71,0.00,CLR,,0.00,WeatherDisplay:10.37,2013-03-21 12:21:00,
2013-03-21 07:23:00,6.6,-0.8,30.02,NW,309,0.6,1.1,71,0.00,CLR,,0.00,WeatherDisplay:10.37,2013-03-21 12:23:00,
2013-03-21 07:24:00,6.7,-0.7,30.02,NW,311,0.6,2.3,71,0.00,CLR,,0.00,WeatherDisplay:10.37,2013-03-21 12:24:00,
2013-03-21 07:26:00,6.8,-0.6,30.02,NW,316,1.6,4.6,71,0.00,CLR,,0.00,WeatherDisplay:10.37,2013-03-21 12:26:00,
2013-03-21 07:28:00,6.7,-0.7,30.02,West,274,0.8,4.6,71,0.00,CLR,,0.00,WeatherDisplay:10.37,2013-03-21 12:28:00,
2013-03-21 07:29:00,6.8,-0.6,30.02,West,274,0.0,4.6,71,0.00,CLR,,0.00,WeatherDisplay:10.37,2013-03-21 12:29:00,
2013-03-21 07:32:00,6.8,-0.6,30.02,NW,306,4.3,6.9,71,0.00,CLR,,0.00,WeatherDisplay:10.37,2013-03-21 12:32:00,
2013-03-21 07:33:00,6.9,-0.5,30.02,WNW,289,1.9,3.5,71,0.00,CLR,,0.00,WeatherDisplay:10.37,2013-03-21 12:33:00,
2013-03-21 07:34:00,7.0,-0.4,30.02,North,4,2.2,4.0,71,0.00,CLR,,0.00,WeatherDisplay:10.37,2013-03-21 12:34:00,
2013-03-21 07:37:00,7.1,-0.3,30.02,NW,313,0.9,2.1,71,0.00,CLR,,0.00,WeatherDisplay:10.37,2013-03-21 12:37:00,
2013-03-21 07:38:00,7.2,-0.2,30.02,West,260,2.2,5.8,71,0.00,CLR,,0.00,WeatherDisplay:10.37,2013-03-21 12:38:00,
2013-03-21 07:39:00,7.2,-0.2,30.02,WNW,289,2.2,4.6,71,0.00,CLR,,0.00,WeatherDisplay:10.37,2013-03-21 12:39:00,
2013-03-21 07:43:00,7.3,-0.1,30.03,NNW,332,2.4,4.6,71,0.00,CLR,,0.00,WeatherDisplay:10.37,2013-03-21 12:43:00,
2013-03-21 07:44:00,7.5,0.1,30.03,NW,315,4.8,7.0,71,0.00,CLR,,0.00,WeatherDisplay:10.37,2013-03-21 12:44:00,
2013-03-21 07:48:00,7.7,0.2,30.02,NW,311,5.0,10.4,71,0.00,CLR,,0.00,WeatherDisplay:10.37,2013-03-21 12:48:00,
2013-03-21 07:49:00,7.8,0.3,30.02,NW,306,5.0,9.2,71,0.00,CLR,,0.00,WeatherDisplay:10.37,2013-03-21 12:49:00,
2013-03-21 07:50:00,7.9,0.4,30.02,NW,319,5.3,9.2,71,0.00,CLR,,0.00,WeatherDisplay:10.37,2013-03-21 12:50:00,
2013-03-21 07:53:00,7.9,0.1,30.02,NW,313,3.4,10.4,70,0.00,CLR,,0.00,WeatherDisplay:10.37,2013-03-21 12:53:00,
2013-03-21 07:54:00,8.2,0.4,30.02,WNW,301,3.9,7.0,70,0.00,CLR,,0.00,WeatherDisplay:10.37,2013-03-21 12:54:00,
2013-03-21 07:55:00,8.2,0.4,30.02,WNW,299,4.2,5.8,70,0.00,CLR,,0.00,WeatherDisplay:10.37,2013-03-21 12:55:00,
2013-03-21 07:58:00,8.2,0.4,30.02,NW,312,5.5,9.2,70,0.00,CLR,,0.00,WeatherDisplay:10.37,2013-03-21 12:58:00,
2013-03-21 07:59:00,8.2,0.4,30.03,NW,311,5.3,7.6,70,0.00,CLR,,0.00,WeatherDisplay:10.37,2013-03-21 12:59:00,
2013-03-21 08:00:00,8.4,0.6,30.03,NNE,21,5.7,6.9,70,0.00,CLR,,0.00,WeatherDisplay:10.37,2013-03-21 13:00:00,
2013-03-21 08:03:00,8.5,0.7,30.03,NW,306,4.2,9.2,70,0.00,CLR,,0.00,WeatherDisplay:10.37,2013-03-21 13:03:00,
2013-03-21 08:04:00,8.6,0.8,30.03,WNW,296,6.3,8.8,70,0.00,CLR,,0.00,WeatherDisplay:10.37,2013-03-21 13:04:00,
2013-03-21 08:05:00,8.7,0.9,30.03,WNW,284,6.4,6.9,70,0.00,CLR,,0.00,WeatherDisplay:10.37,2013-03-21 13:05:00,
2013-03-21 08:08:00,8.8,1.0,30.03,WNW,295,2.7,9.2,70,0.00,CLR,,0.00,WeatherDisplay:10.37,2013-03-21 13:08:00,
2013-03-21 08:09:00,8.9,1.1,30.03,NW,318,4.0,6.9,70,0.00,CLR,,0.00,WeatherDisplay:10.37,2013-03-21 13:09:00,
2013-03-21 08:10:00,8.9,1.1,30.03,WNW,298,4.2,6.9,70,0.00,CLR,,0.00,WeatherDisplay:10.37,2013-03-21 13:10:00,
2013-03-21 08:14:00,9.2,1.4,30.03,NNW,347,4.3,5.9,70,0.00,CLR,,0.00,WeatherDisplay:10.37,2013-03-21 13:14:00,
2013-03-21 08:15:00,9.2,1.4,30.03,WNW,291,3.0,6.9,70,0.00,CLR,,0.00,WeatherDisplay:10.37,2013-03-21 13:15:00,
2013-03-21 08:19:00,9.4,1.3,30.03,West,264,3.3,5.3,69,0.00,CLR,,0.00,WeatherDisplay:10.37,2013-03-21 13:19:00,
2013-03-21 08:20:00,9.4,1.3,30.03,West,271,3.2,5.8,69,0.00,CLR,,0.00,WeatherDisplay:10.37,2013-03-21 13:20:00,
2013-03-21 08:24:00,9.5,1.4,30.03,WNW,296,4.2,6.1,69,0.00,CLR,,0.00,WeatherDisplay:10.37,2013-03-21 13:24:00,
2013-03-21 08:25:00,9.7,1.6,30.03,WNW,295,2.6,5.8,69,0.00,CLR,,0.00,WeatherDisplay:10.37,2013-03-21 13:25:00,
2013-03-21 08:29:00,9.9,1.8,30.03,WNW,285,2.7,5.8,69,0.00,CLR,,0.00,WeatherDisplay:10.37,2013-03-21 13:29:00,
2013-03-21 08:30:00,9.9,1.8,30.03,WNW,299,3.8,6.9,69,0.00,CLR,,0.00,WeatherDisplay:10.37,2013-03-21 13:30:00,
2013-03-21 08:34:00,10.1,1.6,30.03,NW,315,3.5,6.9,68,0.00,CLR,,0.00,WeatherDisplay:10.37,2013-03-21 13:34:00,
2013-03-21 08:35:00,10.3,1.8,30.03,NW,318,2.0,4.2,68,0.00,CLR,,0.00,WeatherDisplay:10.37,2013-03-21 13:35:00,
2013-03-21 08:39:00,10.4,1.9,30.03,West,272,4.3,6.9,68,0.00,CLR,,0.00,WeatherDisplay:10.37,2013-03-21 13:39:00,
2013-03-21 08:40:00,10.3,1.8,30.03,NW,309,6.3,9.2,68,0.00,CLR,,0.00,WeatherDisplay:10.37,2013-03-21 13:40:00,
2013-03-21 08:41:00,10.5,2.0,30.03,WNW,285,5.0,8.1,68,0.00,CLR,,0.00,WeatherDisplay:10.37,2013-03-21 13:41:00,
2013-03-21 08:44:00,10.7,2.2,30.03,NW,304,3.9,5.8,68,0.00,CLR,,0.00,WeatherDisplay:10.37,2013-03-21 13:44:00,
2013-03-21 08:45:00,10.7,2.2,30.03,NW,312,3.9,5.8,68,0.00,CLR,,0.00,WeatherDisplay:10.37,2013-03-21 13:45:00,
2013-03-21 08:46:00,10.7,2.2,30.03,NW,309,4.0,9.9,68,0.00,CLR,,0.00,WeatherDisplay:10.37,2013-03-21 13:46:00,
2013-03-21 08:49:00,10.8,2.3,30.03,NW,311,4.4,6.9,68,0.00,CLR,,0.00,WeatherDisplay:10.37,2013-03-21 13:49:00,
2013-03-21 08:50:00,10.9,2.4,30.03,WNW,287,3.8,5.8,68,0.00,CLR,,0.00,WeatherDisplay:10.37,2013-03-21 13:50:00,
2013-03-21 08:51:00,11.0,2.5,30.03,NW,312,3.9,5.8,68,0.00,CLR,,0.00,WeatherDisplay:10.37,2013-03-21 13:51:00,
2013-03-21 08:54:00,11.1,2.3,30.03,NNW,332,4.0,8.1,67,0.00,CLR,,0.00,WeatherDisplay:10.37,2013-03-21 13:54:00,
2013-03-21 08:55:00,11.2,2.4,30.03,NNW,340,4.0,6.9,67,0.00,CLR,,0.00,WeatherDisplay:10.37,2013-03-21 13:55:00,
2013-03-21 08:56:00,11.2,2.4,30.03,WNW,282,3.5,4.6,67,0.00,CLR,,0.00,WeatherDisplay:10.37,2013-03-21 13:56:00,
2013-03-21 09:00:00,11.2,2.4,30.03,West,272,4.1,5.8,67,0.00,CLR,,0.00,WeatherDisplay:10.37,2013-03-21 14:00:00,
2013-03-21 09:01:00,11.6,2.8,30.03,WNW,291,3.9,5.8,67,0.00,CLR,,0.00,WeatherDisplay:10.37,2013-03-21 14:01:00,
2013-03-21 09:02:00,11.5,2.7,30.03,WNW,284,4.3,6.9,67,0.00,CLR,,0.00,WeatherDisplay:10.37,2013-03-21 14:02:00,
2013-03-21 09:05:00,11.7,2.8,30.03,North,350,4.4,9.2,67,0.00,CLR,,0.00,WeatherDisplay:10.37,2013-03-21 14:05:00,
2013-03-21 09:06:00,11.8,2.9,30.03,WNW,295,5.5,8.1,67,0.00,CLR,,0.00,WeatherDisplay:10.37,2013-03-21 14:06:00,
2013-03-21 09:07:00,11.8,2.9,30.03,NW,305,4.0,6.9,67,0.00,CLR,,0.00,WeatherDisplay:10.37,2013-03-21 14:07:00,
2013-03-21 09:10:00,12.0,3.1,30.03,WNW,299,4.8,6.9,67,0.00,CLR,,0.00,WeatherDisplay:10.37,2013-03-21 14:10:00,
2013-03-21 09:12:00,11.9,2.7,30.03,NW,319,5.9,8.1,66,0.00,CLR,,0.00,WeatherDisplay:10.37,2013-03-21 14:12:00,
2013-03-21 09:13:00,12.2,3.0,30.03,NW,322,5.3,8.1,66,0.00,CLR,,0.00,WeatherDisplay:10.37,2013-03-21 14:13:00,
2013-03-21 09:15:00,12.3,3.1,30.03,WNW,294,4.5,9.2,66,0.00,CLR,,0.00,WeatherDisplay:10.37,2013-03-21 14:15:00,
2013-03-21 09:16:00,12.3,3.1,30.03,NNW,332,4.6,9.2,66,0.00,CLR,,0.00,WeatherDisplay:10.37,2013-03-21 14:16:00,
2013-03-21 09:17:00,12.4,3.2,30.03,NW,325,5.8,9.8,66,0.00,CLR,,0.00,WeatherDisplay:10.37,2013-03-21 14:17:00,
2013-03-21 09:18:00,12.4,3.2,30.03,NW,315,5.7,9.2,66,0.00,CLR,,0.00,WeatherDisplay:10.37,2013-03-21 14:18:00,
2013-03-21 09:21:00,12.5,3.3,30.03,NNE,18,5.1,9.2,66,0.00,CLR,,0.00,WeatherDisplay:10.37,2013-03-21 14:21:00,
2013-03-21 09:22:00,12.5,3.3,30.03,NW,313,3.6,6.9,66,0.00,CLR,,0.00,WeatherDisplay:10.37,2013-03-21 14:22:00,
2013-03-21 09:23:00,12.7,3.5,30.03,NW,315,6.1,9.2,66,0.00,CLR,,0.00,WeatherDisplay:10.37,2013-03-21 14:23:00,
2013-03-21 09:26:00,12.8,3.6,30.03,NW,313,5.1,6.9,66,0.00,CLR,,0.00,WeatherDisplay:10.37,2013-03-21 14:26:00,
2013-03-21 09:27:00,13.0,3.8,30.03,WNW,287,5.0,8.6,66,0.00,CLR,,0.00,WeatherDisplay:10.37,2013-03-21 14:27:00,
2013-03-21 09:28:00,13.1,3.9,30.03,WNW,296,5.9,8.1,66,0.00,CLR,,0.00,WeatherDisplay:10.37,2013-03-21 14:28:00,
2013-03-21 09:32:00,13.2,3.6,30.03,North,1,5.4,7.2,65,0.00,CLR,,0.00,WeatherDisplay:10.37,2013-03-21 14:32:00,
2013-03-21 09:33:00,13.3,3.7,30.03,NW,308,5.3,9.2,65,0.00,CLR,,0.00,WeatherDisplay:10.37,2013-03-21 14:33:00,
2013-03-21 09:37:00,13.6,4.0,30.03,WNW,295,4.6,7.5,65,0.00,CLR,,0.00,WeatherDisplay:10.37,2013-03-21 14:37:00,
2013-03-21 09:38:00,13.6,4.0,30.03,NNW,332,2.5,8.1,65,0.00,CLR,,0.00,WeatherDisplay:10.37,2013-03-21 14:38:00,
2013-03-21 09:42:00,13.9,4.3,30.03,WNW,291,5.4,8.1,65,0.00,CLR,,0.00,WeatherDisplay:10.37,2013-03-21 14:42:00,
2013-03-21 09:43:00,13.9,4.3,30.03,WNW,285,4.2,8.1,65,0.00,CLR,,0.00,WeatherDisplay:10.37,2013-03-21 14:43:00,
2013-03-21 09:47:00,14.2,4.2,30.03,North,353,5.5,9.2,64,0.00,CLR,,0.00,WeatherDisplay:10.37,2013-03-21 14:47:00,
2013-03-21 09:48:00,14.3,4.3,30.03,West,268,4.6,8.1,64,0.00,CLR,,0.00,WeatherDisplay:10.37,2013-03-21 14:48:00,
2013-03-21 09:49:00,14.2,4.2,30.03,West,265,1.8,8.1,64,0.00,CLR,,0.00,WeatherDisplay:10.37,2013-03-21 14:49:00,
2013-03-21 09:53:00,14.6,4.3,30.03,West,274,4.3,8.1,63,0.00,CLR,,0.00,WeatherDisplay:10.37,2013-03-21 14:53:00,
2013-03-21 09:54:00,14.7,4.4,30.03,NNW,333,4.4,6.9,63,0.00,CLR,,0.00,WeatherDisplay:10.37,2013-03-21 14:54:00,
2013-03-21 09:58:00,14.9,4.6,30.03,WNW,301,4.2,5.9,63,0.00,CLR,,0.00,WeatherDisplay:10.37,2013-03-21 14:58:00,
2013-03-21 09:59:00,14.8,4.5,30.03,WNW,287,6.5,9.2,63,0.00,CLR,,0.00,WeatherDisplay:10.37,2013-03-21 14:59:00,
2013-03-21 10:03:00,15.2,4.9,30.03,NNW,328,5.8,9.8,63,0.00,CLR,,0.00,WeatherDisplay:10.37,2013-03-21 15:03:00,
2013-03-21 10:04:00,15.2,4.5,30.03,North,354,6.2,9.2,62,0.00,CLR,,0.00,WeatherDisplay:10.37,2013-03-21 15:04:00,
2013-03-21 10:05:00,15.2,4.5,30.03,WNW,289,3.2,9.2,62,0.00,CLR,,0.00,WeatherDisplay:10.37,2013-03-21 15:05:00,
2013-03-21 10:08:00,15.4,4.7,30.03,WNW,298,3.4,5.8,62,0.00,CLR,,0.00,WeatherDisplay:10.37,2013-03-21 15:08:00,
2013-03-21 10:09:00,15.5,4.8,30.03,NNW,332,5.1,6.9,62,0.00,CLR,,0.00,WeatherDisplay:10.37,2013-03-21 15:09:00,
2013-03-21 10:10:00,15.5,4.8,30.03,North,8,5.4,8.1,62,0.00,CLR,,0.00,WeatherDisplay:10.37,2013-03-21 15:10:00,
2013-03-21 10:13:00,15.8,5.1,30.03,NNE,24,3.6,3.6,62,0.00,CLR,,0.00,WeatherDisplay:10.37,2013-03-21 15:13:00,
2013-03-21 10:14:00,15.8,5.1,30.03,NNW,329,5.2,9.2,62,0.00,CLR,,0.00,WeatherDisplay:10.37,2013-03-21 15:14:00,
2013-03-21 10:15:00,15.9,5.2,30.03,West,268,3.3,8.1,62,0.00,CLR,,0.00,WeatherDisplay:10.37,2013-03-21 15:15:00,
2013-03-21 10:18:00,16.1,5.4,30.03,NNW,328,2.0,4.6,62,0.00,CLR,,0.00,WeatherDisplay:10.37,2013-03-21 15:18:00,
2013-03-21 10:19:00,16.3,5.5,30.03,NNW,344,2.3,4.6,62,0.00,CLR,,0.00,WeatherDisplay:10.37,2013-03-21 15:19:00,
2013-03-21 10:20:00,16.3,5.5,30.03,NW,322,4.9,5.8,62,0.00,CLR,,0.00,WeatherDisplay:10.37,2013-03-21 15:20:00,
2013-03-21 10:24:00,16.5,5.4,30.03,WSW,250,7.2,10.4,61,0.00,CLR,,0.00,WeatherDisplay:10.37,2013-03-21 15:24:00,
2013-03-21 10:25:00,16.6,5.5,30.03,NNE,27,6.2,10.4,61,0.00,CLR,,0.00,WeatherDisplay:10.37,2013-03-21 15:25:00,
2013-03-21 10:29:00,16.7,5.6,30.03,North,356,5.8,8.1,61,0.00,CLR,,0.00,WeatherDisplay:10.37,2013-03-21 15:29:00,
2013-03-21 10:30:00,16.7,5.2,30.03,NW,305,6.4,8.1,60,0.00,CLR,,0.00,WeatherDisplay:10.37,2013-03-21 15:30:00,
2013-03-21 10:34:00,17.0,5.9,30.03,NNW,329,2.2,4.6,61,0.00,CLR,,0.00,WeatherDisplay:10.37,2013-03-21 15:34:00,
2013-03-21 10:35:00,17.1,5.9,30.03,NNW,344,4.5,7.1,61,0.00,CLR,,0.00,WeatherDisplay:10.37,2013-03-21 15:35:00,
2013-03-21 10:39:00,17.2,5.7,30.03,NW,322,5.5,8.1,60,0.00,CLR,,0.00,WeatherDisplay:10.37,2013-03-21 15:39:00,
2013-03-21 10:40:00,17.4,5.9,30.03,NNE,23,4.4,6.9,60,0.00,CLR,,0.00,WeatherDisplay:10.37,2013-03-21 15:40:00,
2013-03-21 10:44:00,17.7,6.2,30.03,West,275,2.3,5.8,60,0.00,CLR,,0.00,WeatherDisplay:10.37,2013-03-21 15:44:00,
2013-03-21 10:45:00,17.7,6.2,30.04,WNW,302,1.1,2.3,60,0.00,CLR,,0.00,WeatherDisplay:10.37,2013-03-21 15:45:00,
2013-03-21 10:49:00,18.1,6.2,30.03,NNW,347,6.4,8.1,59,0.00,CLR,,0.00,WeatherDisplay:10.37,2013-03-21 15:49:00,
2013-03-21 10:50:00,18.0,6.1,30.04,North,11,5.2,9.2,59,0.00,CLR,,0.00,WeatherDisplay:10.37,2013-03-21 15:50:00,
2013-03-21 10:54:00,18.3,6.0,30.04,NW,308,4.9,10.4,58,0.00,CLR,,0.00,WeatherDisplay:10.37,2013-03-21 15:54:00,
2013-03-21 10:56:00,18.4,6.1,30.04,North,360,4.3,5.8,58,0.00,CLR,,0.00,WeatherDisplay:10.37,2013-03-21 15:56:00,
2013-03-21 11:00:00,18.5,6.2,30.04,NNE,23,4.5,8.1,58,0.00,CLR,,0.00,WeatherDisplay:10.37,2013-03-21 16:00:00,
2013-03-21 11:01:00,18.6,6.3,30.04,North,8,5.6,9.2,58,0.00,CLR,,0.00,WeatherDisplay:10.37,2013-03-21 16:01:00,
2013-03-21 11:02:00,18.6,6.3,30.04,WNW,301,4.4,9.2,58,0.00,CLR,,0.00,WeatherDisplay:10.37,2013-03-21 16:02:00,
2013-03-21 11:05:00,18.8,6.4,30.04,NNW,343,4.8,8.5,58,0.00,CLR,,0.00,WeatherDisplay:10.37,2013-03-21 16:05:00,
2013-03-21 11:06:00,18.8,6.4,30.04,North,3,4.4,8.1,58,0.00,CLR,,0.00,WeatherDisplay:10.37,2013-03-21 16:06:00,
2013-03-21 11:07:00,18.9,6.5,30.04,North,360,4.0,5.8,58,0.00,CLR,,0.00,WeatherDisplay:10.37,2013-03-21 16:07:00,
2013-03-21 11:10:00,18.9,6.5,30.04,NNW,332,3.8,6.9,58,0.00,CLR,,0.00,WeatherDisplay:10.37,2013-03-21 16:10:00,
2013-03-21 11:11:00,19.1,6.7,30.04,NW,319,5.5,6.9,58,0.00,CLR,,0.00,WeatherDisplay:10.37,2013-03-21 16:11:00,
2013-03-21 11:12:00,19.1,6.7,30.04,North,359,5.6,9.2,58,0.00,CLR,,0.00,WeatherDisplay:10.37,2013-03-21 16:12:00,
2013-03-21 11:15:00,19.3,6.9,30.03,NNE,21,4.9,8.1,58,0.00,CLR,,0.00,WeatherDisplay:10.37,2013-03-21 16:15:00,
2013-03-21 11:16:00,19.3,6.9,30.03,NW,319,4.3,6.9,58,0.00,CLR,,0.00,WeatherDisplay:10.37,2013-03-21 16:16:00,
2013-03-21 11:17:00,19.5,7.1,30.03,NE,35,2.9,6.9,58,0.00,CLR,,0.00,WeatherDisplay:10.37,2013-03-21 16:17:00,
2013-03-21 11:20:00,19.6,7.2,30.03,NW,318,4.0,8.1,58,0.00,CLR,,0.00,WeatherDisplay:10.37,2013-03-21 16:20:00,
2013-03-21 11:22:00,19.7,7.3,30.03,WNW,301,3.9,8.1,58,0.00,CLR,,0.00,WeatherDisplay:10.37,2013-03-21 16:22:00,
2013-03-21 11:25:00,20.0,7.6,30.03,NW,306,2.5,8.1,58,0.00,CLR,,0.00,WeatherDisplay:10.37,2013-03-21 16:25:00,
2013-03-21 11:27:00,20.0,7.6,30.04,NE,41,2.7,6.9,58,0.00,CLR,,0.00,WeatherDisplay:10.37,2013-03-21 16:27:00,
2013-03-21 11:30:00,20.1,7.3,30.04,NW,315,4.6,8.1,57,0.00,CLR,,0.00,WeatherDisplay:10.37,2013-03-21 16:30:00,
2013-03-21 11:33:00,20.2,7.4,30.04,NNE,20,3.5,6.9,57,0.00,CLR,,0.00,WeatherDisplay:10.37,2013-03-21 16:33:00,
2013-03-21 11:35:00,20.3,7.1,30.04,WNW,294,5.2,9.2,56,0.00,CLR,,0.00,WeatherDisplay:10.37,2013-03-21 16:35:00,
2013-03-21 11:36:00,20.2,7.0,30.04,WNW,292,4.9,8.0,56,0.00,CLR,,0.00,WeatherDisplay:10.37,2013-03-21 16:36:00,
2013-03-21 11:38:00,20.3,7.1,30.04,East,86,3.1,8.1,56,0.00,CLR,,0.00,WeatherDisplay:10.37,2013-03-21 16:38:00,
2013-03-21 11:40:00,20.4,7.6,30.04,NNW,346,6.5,6.9,57,0.00,CLR,,0.00,WeatherDisplay:10.37,2013-03-21 16:40:00,
2013-03-21 11:41:00,20.3,7.5,30.04,WSW,248,2.6,9.2,57,0.00,CLR,,0.00,WeatherDisplay:10.37,2013-03-21 16:41:00,
2013-03-21 11:43:00,20.5,7.7,30.04,NW,313,2.5,3.5,57,0.00,CLR,,0.00,WeatherDisplay:10.37,2013-03-21 16:43:00,
2013-03-21 11:44:00,20.5,7.7,30.04,NNE,28,0.7,3.2,57,0.00,CLR,,0.00,WeatherDisplay:10.37,2013-03-21 16:44:00,
2013-03-21 11:46:00,20.7,7.9,30.04,NNW,328,3.5,5.3,57,0.00,CLR,,0.00,WeatherDisplay:10.37,2013-03-21 16:46:00,
2013-03-21 11:47:00,20.7,7.5,30.04,NNE,17,5.9,8.1,56,0.00,CLR,,0.00,WeatherDisplay:10.37,2013-03-21 16:47:00,
2013-03-21 11:48:00,20.8,7.6,30.04,NNW,344,1.7,7.8,56,0.00,CLR,,0.00,WeatherDisplay:10.37,2013-03-21 16:48:00,
2013-03-21 11:49:00,20.7,7.5,30.04,North,360,6.2,8.1,56,0.00,CLR,,0.00,WeatherDisplay:10.37,2013-03-21 16:49:00,
2013-03-21 11:52:00,20.8,7.6,30.04,North,356,6.5,8.1,56,0.00,CLR,,0.00,WeatherDisplay:10.37,2013-03-21 16:52:00,
2013-03-21 11:53:00,20.9,7.6,30.04,North,360,5.3,9.2,56,0.00,CLR,,0.00,WeatherDisplay:10.37,2013-03-21 16:53:00,
2013-03-21 11:54:00,20.9,7.6,30.04,North,360,5.5,8.1,56,0.00,CLR,,0.00,WeatherDisplay:10.37,2013-03-21 16:54:00,
2013-03-21 11:57:00,20.9,7.6,30.04,WNW,298,5.2,7.9,56,0.00,CLR,,0.00,WeatherDisplay:10.37,2013-03-21 16:57:00,
2013-03-21 11:58:00,20.9,7.6,30.04,NNW,328,5.1,9.2,56,0.00,CLR,,0.00,WeatherDisplay:10.37,2013-03-21 16:58:00,
2013-03-21 11:59:00,20.8,7.6,30.04,North,360,5.4,10.4,56,0.00,CLR,,0.00,WeatherDisplay:10.37,2013-03-21 16:59:00,
2013-03-21 12:02:00,21.0,7.7,30.04,North,8,1.4,3.5,56,0.00,CLR,,0.00,WeatherDisplay:10.37,2013-03-21 17:02:00,
2013-03-21 12:03:00,21.2,7.9,30.04,NE,54,2.9,6.2,56,0.00,CLR,,0.00,WeatherDisplay:10.37,2013-03-21 17:03:00,
2013-03-21 12:04:00,21.1,7.8,30.04,North,350,5.2,6.9,56,0.00,CLR,,0.00,WeatherDisplay:10.37,2013-03-21 17:04:00,
2013-03-21 12:08:00,21.3,8.0,30.04,NNW,336,3.5,8.1,56,0.00,CLR,,0.00,WeatherDisplay:10.37,2013-03-21 17:08:00,
2013-03-21 12:09:00,21.4,7.7,30.04,NW,304,4.9,6.9,55,0.00,CLR,,0.00,WeatherDisplay:10.37,2013-03-21 17:09:00,
2013-03-21 12:13:00,21.5,7.8,30.04,NW,308,4.0,6.9,55,0.00,CLR,,0.00,WeatherDisplay:10.37,2013-03-21 17:13:00,
2013-03-21 12:14:00,21.5,7.8,30.04,NW,305,3.3,5.8,55,0.00,CLR,,0.00,WeatherDisplay:10.37,2013-03-21 17:14:00,
2013-03-21 12:18:00,21.8,8.1,30.04,WNW,289,5.0,6.9,55,0.00,CLR,,0.00,WeatherDisplay:10.37,2013-03-21 17:18:00,
2013-03-21 12:19:00,21.9,8.2,30.04,NW,326,4.1,6.9,55,0.00,CLR,,0.00,WeatherDisplay:10.37,2013-03-21 17:19:00,
2013-03-21 12:23:00,22.1,8.0,30.04,NNE,21,4.2,6.7,54,0.00,CLR,,0.00,WeatherDisplay:10.37,2013-03-21 17:23:00,
2013-03-21 12:24:00,22.2,8.5,30.04,North,360,4.6,6.9,55,0.00,CLR,,0.00,WeatherDisplay:10.37,2013-03-21 17:24:00,
2013-03-21 12:29:00,22.4,8.7,30.04,NNW,336,3.0,4.6,55,0.00,CLR,,0.00,WeatherDisplay:10.37,2013-03-21 17:29:00,
2013-03-21 12:34:00,22.7,8.5,30.03,NNW,344,0.0,0.0,54,0.00,CLR,,0.00,WeatherDisplay:10.37,2013-03-21 17:34:00,
2013-03-21 12:35:00,22.6,8.4,30.03,West,281,0.2,3.9,54,0.00,CLR,,0.00,WeatherDisplay:10.37,2013-03-21 17:35:00,
2013-03-21 12:39:00,23.0,8.8,30.03,NW,312,3.7,5.8,54,0.00,CLR,,0.00,WeatherDisplay:10.37,2013-03-21 17:39:00,
2013-03-21 12:40:00,23.0,8.8,30.03,NNW,346,5.1,6.9,54,0.00,CLR,,0.00,WeatherDisplay:10.37,2013-03-21 17:40:00,
2013-03-21 12:44:00,23.2,8.6,30.04,NNE,25,3.1,5.8,53,0.00,CLR,,0.00,WeatherDisplay:10.37,2013-03-21 17:44:00,
2013-03-21 12:45:00,23.2,8.6,30.04,NE,56,2.8,5.8,53,0.00,CLR,,0.00,WeatherDisplay:10.37,2013-03-21 17:45:00,
2013-03-21 12:49:00,23.4,8.8,30.04,West,265,1.2,4.6,53,0.00,CLR,,0.00,WeatherDisplay:10.37,2013-03-21 17:49:00,
2013-03-21 12:50:00,23.4,8.8,30.03,WNW,301,2.7,5.2,53,0.00,CLR,,0.00,WeatherDisplay:10.37,2013-03-21 17:50:00,
2013-03-21 12:54:00,23.7,9.0,30.04,WNW,285,2.5,4.6,53,0.00,CLR,,0.00,WeatherDisplay:10.37,2013-03-21 17:54:00,
2013-03-21 12:55:00,23.8,8.7,30.04,North,353,3.0,4.6,52,0.00,CLR,,0.00,WeatherDisplay:10.37,2013-03-21 17:55:00,
2013-03-21 13:00:00,24.2,8.7,30.04,NW,311,2.9,6.9,51,0.00,CLR,,0.00,WeatherDisplay:10.37,2013-03-21 18:00:00,
2013-03-21 13:01:00,24.2,8.7,30.03,WNW,291,2.0,4.6,51,0.00,CLR,,0.00,WeatherDisplay:10.37,2013-03-21 18:01:00,
2013-03-21 13:05:00,24.4,8.8,30.03,NW,320,4.4,6.1,51,0.00,CLR,,0.00,WeatherDisplay:10.37,2013-03-21 18:05:00,
2013-03-21 13:06:00,24.5,8.9,30.03,NE,40,2.3,5.8,51,0.00,CLR,,0.00,WeatherDisplay:10.37,2013-03-21 18:06:00,
2013-03-21 13:10:00,24.7,9.1,30.03,NW,308,3.1,5.8,51,0.00,CLR,,0.00,WeatherDisplay:10.37,2013-03-21 18:10:00,
2013-03-21 13:11:00,24.8,9.2,30.03,NW,311,2.8,5.8,51,0.00,CLR,,0.00,WeatherDisplay:10.37,2013-03-21 18:11:00,
2013-03-21 13:12:00,24.8,8.8,30.03,NW,323,5.0,6.8,50,0.00,CLR,,0.00,WeatherDisplay:10.37,2013-03-21 18:12:00,
2013-03-21 13:15:00,24.9,8.9,30.03,WNW,288,2.4,5.0,50,0.00,CLR,,0.00,WeatherDisplay:10.37,2013-03-21 18:15:00,
2013-03-21 13:16:00,25.0,9.0,30.03,West,274,3.3,5.8,50,0.00,CLR,,0.00,WeatherDisplay:10.37,2013-03-21 18:16:00,
2013-03-21 13:17:00,25.0,9.0,30.03,West,278,3.1,5.8,50,0.00,CLR,,0.00,WeatherDisplay:10.37,2013-03-21 18:17:00,
2013-03-21 13:20:00,25.2,8.7,30.03,NNW,328,4.6,8.1,49,0.00,CLR,,0.00,WeatherDisplay:10.37,2013-03-21 18:20:00,
2013-03-21 13:21:00,25.3,9.2,30.03,NNW,344,2.7,6.9,50,0.00,CLR,,0.00,WeatherDisplay:10.37,2013-03-21 18:21:00,
2013-03-21 13:22:00,25.3,9.2,30.03,NW,313,2.1,4.6,50,0.00,CLR,,0.00,WeatherDisplay:10.37,2013-03-21 18:22:00,
2013-03-21 13:25:00,25.7,9.6,30.03,NNW,328,3.1,4.6,50,0.00,CLR,,0.00,WeatherDisplay:10.37,2013-03-21 18:25:00,
2013-03-21 13:26:00,25.8,9.7,30.03,WNW,287,5.4,8.2,50,0.00,CLR,,0.00,WeatherDisplay:10.37,2013-03-21 18:26:00,
2013-03-21 13:27:00,25.8,9.2,30.03,West,275,5.9,8.1,49,0.00,CLR,,0.00,WeatherDisplay:10.37,2013-03-21 18:27:00,
2013-03-21 13:31:00,26.0,9.4,30.03,NW,311,2.2,3.5,49,0.00,CLR,,0.00,WeatherDisplay:10.37,2013-03-21 18:31:00,
2013-03-21 13:32:00,26.2,9.6,30.03,SW,229,4.0,5.8,49,0.00,CLR,,0.00,WeatherDisplay:10.37,2013-03-21 18:32:00,
2013-03-21 13:36:00,26.3,9.2,30.03,NNW,328,2.9,6.9,48,0.00,CLR,,0.00,WeatherDisplay:10.37,2013-03-21 18:36:00,
2013-03-21 13:37:00,26.4,9.3,30.03,NW,309,0.3,4.6,48,0.00,CLR,,0.00,WeatherDisplay:10.37,2013-03-21 18:37:00,
2013-03-21 13:38:00,26.5,9.4,30.03,NW,313,4.0,4.8,48,0.00,CLR,,0.00,WeatherDisplay:10.37,2013-03-21 18:38:00,
2013-03-21 13:41:00,26.8,9.7,30.03,NNE,14,0.1,3.5,48,0.00,CLR,,0.00,WeatherDisplay:10.37,2013-03-21 18:41:00,
2013-03-21 13:42:00,26.8,9.7,30.03,WNW,294,2.5,4.4,48,0.00,CLR,,0.00,WeatherDisplay:10.37,2013-03-21 18:42:00,
2013-03-21 13:43:00,27.1,10.0,30.03,WNW,287,4.7,5.8,48,0.00,CLR,,0.00,WeatherDisplay:10.37,2013-03-21 18:43:00,
2013-03-21 13:46:00,27.2,10.1,30.03,NW,311,2.1,5.8,48,0.00,CLR,,0.00,WeatherDisplay:10.37,2013-03-21 18:46:00,
2013-03-21 13:47:00,27.3,9.7,30.03,WNW,302,4.9,5.8,47,0.00,CLR,,0.00,WeatherDisplay:10.37,2013-03-21 18:47:00,
2013-03-21 13:48:00,27.3,9.7,30.03,WNW,302,4.9,5.8,47,0.00,CLR,,0.00,WeatherDisplay:10.37,2013-03-21 18:48:00,
2013-03-21 13:49:00,27.4,9.8,30.03,West,265,4.8,9.2,47,0.00,CLR,,0.00,WeatherDisplay:10.37,2013-03-21 18:49:00,
2013-03-21 13:51:00,27.7,10.1,30.03,WNW,284,0.0,2.3,47,0.00,CLR,,0.00,WeatherDisplay:10.37,2013-03-21 18:51:00,
2013-03-21 13:53:00,27.8,10.2,30.03,WNW,291,0.6,0.0,47,0.00,CLR,,0.00,WeatherDisplay:10.37,2013-03-21 18:53:00,
2013-03-21 13:54:00,27.9,10.2,30.03,SW,226,0.5,2.8,47,0.00,CLR,,0.00,WeatherDisplay:10.37,2013-03-21 18:54:00,
2013-03-21 13:56:00,28.4,10.7,30.03,NW,313,4.0,5.0,47,0.00,CLR,,0.00,WeatherDisplay:10.37,2013-03-21 18:56:00,
2013-03-21 13:58:00,28.5,10.8,30.02,West,271,2.6,6.9,47,0.00,CLR,,0.00,WeatherDisplay:10.37,2013-03-21 18:58:00,
2013-03-21 13:59:00,28.6,10.4,30.03,NW,306,3.1,3.9,46,0.00,CLR,,0.00,WeatherDisplay:10.37,2013-03-21 18:59:00,
2013-03-21 14:01:00,29.0,10.8,30.03,West,278,3.0,5.8,46,0.00,CLR,,0.00,WeatherDisplay:10.37,2013-03-21 19:01:00,
2013-03-21 14:03:00,29.0,10.8,30.03,North,360,1.5,4.1,46,0.00,CLR,,0.00,WeatherDisplay:10.37,2013-03-21 19:03:00,
2013-03-21 14:04:00,29.2,10.5,30.03,WNW,296,5.9,9.2,45,0.00,CLR,,0.00,WeatherDisplay:10.37,2013-03-21 19:04:00,
2013-03-21 14:07:00,29.4,10.6,30.02,West,281,6.2,9.2,45,0.00,CLR,,0.00,WeatherDisplay:10.37,2013-03-21 19:07:00,
2013-03-21 14:08:00,29.5,10.2,30.02,WNW,301,4.5,6.9,44,0.00,CLR,,0.00,WeatherDisplay:10.37,2013-03-21 19:08:00,
2013-03-21 14:09:00,29.5,10.2,30.02,WNW,284,3.2,6.9,44,0.00,CLR,,0.00,WeatherDisplay:10.37,2013-03-21 19:09:00,
2013-03-21 14:13:00,29.5,10.7,30.02,WNW,291,3.1,6.3,45,0.00,CLR,,0.00,WeatherDisplay:10.37,2013-03-21 19:13:00,
2013-03-21 14:14:00,29.6,10.3,30.02,West,260,4.7,5.8,44,0.00,CLR,,0.00,WeatherDisplay:10.37,2013-03-21 19:14:00,
2013-03-21 14:18:00,29.9,11.1,30.02,WSW,257,2.0,3.5,45,0.00,CLR,,0.00,WeatherDisplay:10.37,2013-03-21 19:18:00,
2013-03-21 14:19:00,30.0,11.2,30.02,West,275,3.0,3.5,45,0.00,CLR,,0.00,WeatherDisplay:10.37,2013-03-21 19:19:00,
2013-03-21 14:23:00,30.3,11.0,30.02,West,280,4.9,5.8,44,0.00,CLR,,0.00,WeatherDisplay:10.37,2013-03-21 19:23:00,
2013-03-21 14:24:00,30.2,10.9,30.02,West,272,5.0,6.9,44,0.00,CLR,,0.00,WeatherDisplay:10.37,2013-03-21 19:24:00,
2013-03-21 14:25:00,30.3,10.4,30.02,WNW,296,5.0,6.9,43,0.00,CLR,,0.00,WeatherDisplay:10.37,2013-03-21 19:25:00,
2013-03-21 14:28:00,30.3,11.0,30.02,WNW,292,3.8,5.8,44,0.00,CLR,,0.00,WeatherDisplay:10.37,2013-03-21 19:28:00,
2013-03-21 14:29:00,30.2,10.9,30.02,WSW,237,5.4,6.9,44,0.00,CLR,,0.00,WeatherDisplay:10.37,2013-03-21 19:29:00,
2013-03-21 14:30:00,30.3,10.4,30.02,WSW,243,4.0,6.9,43,0.00,CLR,,0.00,WeatherDisplay:10.37,2013-03-21 19:30:00,
2013-03-21 14:33:00,30.5,10.6,30.01,West,280,6.9,10.4,43,0.00,CLR,,0.00,WeatherDisplay:10.37,2013-03-21 19:33:00,
2013-03-21 14:35:00,30.5,10.6,30.01,WSW,248,3.9,11.5,43,0.00,CLR,,0.00,WeatherDisplay:10.37,2013-03-21 19:35:00,
2013-03-21 14:36:00,30.5,10.6,30.01,ENE,73,2.6,5.8,43,0.00,CLR,,0.00,WeatherDisplay:10.37,2013-03-21 19:36:00,
2013-03-21 14:38:00,30.6,11.2,30.01,South,185,1.6,3.5,44,0.00,CLR,,0.00,WeatherDisplay:10.37,2013-03-21 19:38:00,
2013-03-21 14:39:00,30.6,11.2,30.01,SW,233,1.4,3.5,44,0.00,CLR,,0.00,WeatherDisplay:10.37,2013-03-21 19:39:00,
2013-03-21 14:40:00,30.7,11.3,30.01,WSW,246,3.1,6.0,44,0.00,CLR,,0.00,WeatherDisplay:10.37,2013-03-21 19:40:00,
2013-03-21 14:41:00,30.9,11.0,30.01,WNW,287,5.6,5.8,43,0.00,CLR,,0.00,WeatherDisplay:10.37,2013-03-21 19:41:00,
2013-03-21 14:43:00,31.1,11.2,30.01,West,280,3.9,6.9,43,0.00,CLR,,0.00,WeatherDisplay:10.37,2013-03-21 19:43:00,
2013-03-21 14:44:00,31.2,11.3,30.01,NW,313,4.6,6.4,43,0.00,CLR,,0.00,WeatherDisplay:10.37,2013-03-21 19:44:00,
2013-03-21 14:45:00,31.3,11.4,30.01,West,272,4.2,7.2,43,0.00,CLR,,0.00,WeatherDisplay:10.37,2013-03-21 19:45:00,
2013-03-21 14:46:00,31.3,10.8,30.01,WNW,288,4.9,6.9,42,0.00,CLR,,0.00,WeatherDisplay:10.37,2013-03-21 19:46:00,
2013-03-21 14:49:00,31.5,10.5,30.01,West,268,4.3,5.9,41,0.00,CLR,,0.00,WeatherDisplay:10.37,2013-03-21 19:49:00,
2013-03-21 14:50:00,31.4,10.9,30.01,WSW,251,3.8,5.8,42,0.00,CLR,,0.00,WeatherDisplay:10.37,2013-03-21 19:50:00,
2013-03-21 14:52:00,31.6,11.1,30.01,WNW,294,3.8,5.8,42,0.00,CLR,,0.00,WeatherDisplay:10.37,2013-03-21 19:52:00,
2013-03-21 14:54:00,31.6,11.1,30.01,West,277,4.1,4.7,42,0.00,CLR,,0.00,WeatherDisplay:10.37,2013-03-21 19:54:00,
2013-03-21 14:55:00,31.7,10.7,30.01,SW,222,3.7,5.8,41,0.00,CLR,,0.00,WeatherDisplay:10.37,2013-03-21 19:55:00,
2013-03-21 14:57:00,31.9,10.8,30.01,West,281,2.9,6.9,41,0.00,CLR,,0.00,WeatherDisplay:10.37,2013-03-21 19:57:00,
2013-03-21 14:59:00,31.9,10.8,30.01,WNW,282,2.5,6.6,41,0.00,CLR,,0.00,WeatherDisplay:10.37,2013-03-21 19:59:00,
2013-03-21 15:00:00,32.0,10.9,30.01,WSW,251,4.4,6.9,41,0.00,CLR,,0.00,WeatherDisplay:10.37,2013-03-21 20:00:00,
2013-03-21 15:02:00,31.9,10.8,30.01,WNW,301,4.3,6.9,41,0.00,CLR,,0.00,WeatherDisplay:10.37,2013-03-21 20:02:00,
2013-03-21 15:04:00,31.9,10.8,30.01,WNW,294,4.4,6.9,41,0.00,CLR,,0.00,WeatherDisplay:10.37,2013-03-21 20:04:00,
2013-03-21 15:05:00,31.8,11.3,30.01,West,263,4.3,9.8,42,0.00,CLR,,0.00,WeatherDisplay:10.37,2013-03-21 20:05:00,
2013-03-21 15:08:00,31.7,11.2,30.01,WSW,253,5.3,9.2,42,0.00,CLR,,0.00,WeatherDisplay:10.37,2013-03-21 20:08:00,
2013-03-21 15:09:00,31.8,11.3,30.01,WSW,257,6.1,8.1,42,0.00,CLR,,0.00,WeatherDisplay:10.37,2013-03-21 20:09:00,
2013-03-21 15:10:00,31.8,11.3,30.01,WNW,295,4.6,8.1,42,0.00,CLR,,0.00,WeatherDisplay:10.37,2013-03-21 20:10:00,
2013-03-21 15:13:00,31.8,11.3,30.01,WNW,285,2.8,5.7,42,0.00,CLR,,0.00,WeatherDisplay:10.37,2013-03-21 20:13:00,
2013-03-21 15:14:00,31.8,10.7,30.01,NW,308,3.5,6.9,41,0.00,CLR,,0.00,WeatherDisplay:10.37,2013-03-21 20:14:00,
2013-03-21 15:15:00,31.8,10.7,30.01,NW,320,3.3,5.8,41,0.00,CLR,,0.00,WeatherDisplay:10.37,2013-03-21 20:15:00,
2013-03-21 15:18:00,31.8,10.7,30.01,SW,230,3.9,5.8,41,0.00,CLR,,0.00,WeatherDisplay:10.37,2013-03-21 20:18:00,
2013-03-21 15:19:00,31.9,10.8,30.00,SSW,200,3.0,6.9,41,0.00,CLR,,0.00,WeatherDisplay:10.37,2013-03-21 20:19:00,
2013-03-21 15:20:00,31.9,10.8,30.00,SW,222,2.3,3.5,41,0.00,CLR,,0.00,WeatherDisplay:10.37,2013-03-21 20:20:00,
2013-03-21 15:23:00,32.0,10.9,30.01,West,278,5.3,9.2,41,0.00,CLR,,0.00,WeatherDisplay:10.37,2013-03-21 20:23:00,
2013-03-21 15:24:00,32.0,10.4,30.01,NW,318,4.9,6.9,40,0.00,CLR,,0.00,WeatherDisplay:10.37,2013-03-21 20:24:00,
2013-03-21 15:25:00,32.0,10.4,30.00,WSW,246,4.9,9.1,40,0.00,CLR,,0.00,WeatherDisplay:10.37,2013-03-21 20:25:00,
2013-03-21 15:28:00,31.8,10.2,30.01,NW,319,5.2,6.9,40,0.00,CLR,,0.00,WeatherDisplay:10.37,2013-03-21 20:28:00,
2013-03-21 15:29:00,31.7,10.1,30.01,WNW,301,3.3,5.8,40,0.00,CLR,,0.00,WeatherDisplay:10.37,2013-03-21 20:29:00,
2013-03-21 15:30:00,31.7,10.7,30.01,West,267,4.4,8.0,41,0.00,CLR,,0.00,WeatherDisplay:10.37,2013-03-21 20:30:00,
2013-03-21 15:33:00,31.6,10.0,30.01,SSW,196,3.0,5.8,40,0.00,CLR,,0.00,WeatherDisplay:10.37,2013-03-21 20:33:00,
2013-03-21 15:34:00,31.6,10.6,30.01,West,274,4.6,5.8,41,0.00,CLR,,0.00,WeatherDisplay:10.37,2013-03-21 20:34:00,
2013-03-21 15:35:00,31.7,10.7,30.01,WSW,251,4.3,6.9,41,0.00,CLR,,0.00,WeatherDisplay:10.37,2013-03-21 20:35:00,
2013-03-21 15:36:00,31.7,10.7,30.01,West,275,3.0,6.9,41,0.00,CLR,,0.00,WeatherDisplay:10.37,2013-03-21 20:36:00,
2013-03-21 15:38:00,31.9,10.8,30.01,SW,224,5.8,8.1,41,0.00,CLR,,0.00,WeatherDisplay:10.37,2013-03-21 20:38:00,
2013-03-21 15:39:00,32.0,10.4,30.01,SW,232,6.1,8.1,40,0.00,CLR,,0.00,WeatherDisplay:10.37,2013-03-21 20:39:00,
2013-03-21 15:40:00,32.1,10.5,30.01,WSW,243,6.1,9.2,40,0.00,CLR,,0.00,WeatherDisplay:10.37,2013-03-21 20:40:00,
2013-03-21 15:41:00,32.1,10.5,30.01,SW,217,5.1,9.2,40,0.00,CLR,,0.00,WeatherDisplay:10.37,2013-03-21 20:41:00,
2013-03-21 15:43:00,32.2,10.5,30.01,WNW,288,5.0,8.1,40,0.00,CLR,,0.00,WeatherDisplay:10.37,2013-03-21 20:43:00,
2013-03-21 15:44:00,32.1,10.5,30.01,NW,311,3.5,5.8,40,0.00,CLR,,0.00,WeatherDisplay:10.37,2013-03-21 20:44:00,
2013-03-21 15:45:00,32.2,10.5,30.01,West,268,2.7,5.8,40,0.00,CLR,,0.00,WeatherDisplay:10.37,2013-03-21 20:45:00,
2013-03-21 15:46:00,32.3,11.2,30.01,West,261,4.4,8.1,41,0.00,CLR,,0.00,WeatherDisplay:10.37,2013-03-21 20:46:00,
2013-03-21 15:49:00,32.2,10.5,30.01,WSW,240,5.3,8.1,40,0.00,CLR,,0.00,WeatherDisplay:10.37,2013-03-21 20:49:00,
2013-03-21 15:50:00,32.2,10.5,30.01,SW,232,4.3,8.1,40,0.00,CLR,,0.00,WeatherDisplay:10.37,2013-03-21 20:50:00,
2013-03-21 15:51:00,32.2,10.5,30.01,West,271,4.1,6.9,40,0.00,CLR,,0.00,WeatherDisplay:10.37,2013-03-21 20:51:00,
2013-03-21 15:54:00,32.2,10.5,30.01,WNW,284,6.0,9.2,40,0.00,CLR,,0.00,WeatherDisplay:10.37,2013-03-21 20:54:00,
2013-03-21 15:55:00,32.1,10.5,30.01,WNW,284,4.1,9.2,40,0.00,CLR,,0.00,WeatherDisplay:10.37,2013-03-21 20:55:00,
2013-03-21 15:56:00,32.1,10.5,30.01,WSW,253,3.2,5.8,40,0.00,CLR,,0.00,WeatherDisplay:10.37,2013-03-21 20:56:00,
2013-03-21 15:59:00,32.3,11.2,30.01,West,260,3.0,5.8,41,0.00,CLR,,0.00,WeatherDisplay:10.37,2013-03-21 20:59:00,
2013-03-21 16:00:00,32.4,10.7,30.00,West,272,4.6,5.8,40,0.00,CLR,,0.00,WeatherDisplay:10.37,2013-03-21 21:00:00,
2013-03-21 16:01:00,32.4,10.7,30.01,West,280,5.7,7.5,40,0.00,CLR,,0.00,WeatherDisplay:10.37,2013-03-21 21:01:00,
2013-03-21 16:04:00,32.2,10.0,30.00,WSW,251,6.0,9.2,39,0.00,CLR,,0.00,WeatherDisplay:10.37,2013-03-21 21:04:00,
2013-03-21 16:05:00,32.3,10.6,30.00,WSW,257,5.2,8.6,40,0.00,CLR,,0.00,WeatherDisplay:10.37,2013-03-21 21:05:00,
2013-03-21 16:06:00,32.2,10.5,30.00,WNW,289,4.6,8.1,40,0.00,CLR,,0.00,WeatherDisplay:10.37,2013-03-21 21:06:00,
2013-03-21 16:09:00,32.2,10.5,30.00,WNW,298,1.9,4.6,40,0.00,CLR,,0.00,WeatherDisplay:10.37,2013-03-21 21:09:00,
2013-03-21 16:10:00,32.2,10.0,30.00,West,278,4.3,5.8,39,0.00,CLR,,0.00,WeatherDisplay:10.37,2013-03-21 21:10:00,
2013-03-21 16:12:00,32.1,9.9,30.00,West,277,5.1,6.9,39,0.00,CLR,,0.00,WeatherDisplay:10.37,2013-03-21 21:12:00,
2013-03-21 16:14:00,32.0,9.8,30.00,WNW,287,3.5,4.6,39,0.00,CLR,,0.00,WeatherDisplay:10.37,2013-03-21 21:14:00,
2013-03-21 16:15:00,32.0,9.8,30.00,WNW,292,3.1,4.6,39,0.00,CLR,,0.00,WeatherDisplay:10.37,2013-03-21 21:15:00,
2013-03-21 16:16:00,31.9,9.7,30.00,West,265,3.1,4.6,39,0.00,CLR,,0.00,WeatherDisplay:10.37,2013-03-21 21:16:00,
2013-03-21 16:17:00,31.9,9.7,30.00,NW,308,3.4,5.8,39,0.00,CLR,,0.00,WeatherDisplay:10.37,2013-03-21 21:17:00,
2013-03-21 16:19:00,32.0,10.4,30.00,NNW,335,4.0,5.8,40,0.00,CLR,,0.00,WeatherDisplay:10.37,2013-03-21 21:19:00,
2013-03-21 16:20:00,32.0,10.4,30.00,WNW,298,2.3,4.7,40,0.00,CLR,,0.00,WeatherDisplay:10.37,2013-03-21 21:20:00,
2013-03-21 16:21:00,32.1,10.5,30.00,NW,312,2.8,5.2,40,0.00,CLR,,0.00,WeatherDisplay:10.37,2013-03-21 21:21:00,
2013-03-21 16:23:00,32.1,9.9,30.00,WSW,248,4.9,7.5,39,0.00,CLR,,0.00,WeatherDisplay:10.37,2013-03-21 21:23:00,
2013-03-21 16:24:00,32.0,9.8,30.00,WSW,251,3.5,8.1,39,0.00,CLR,,0.00,WeatherDisplay:10.37,2013-03-21 21:24:00,
2013-03-21 16:26:00,32.0,9.8,30.00,SSW,202,5.0,7.4,39,0.00,CLR,,0.00,WeatherDisplay:10.37,2013-03-21 21:26:00,
2013-03-21 16:28:00,31.9,9.7,30.00,SW,229,3.8,5.8,39,0.00,CLR,,0.00,WeatherDisplay:10.37,2013-03-21 21:28:00,
2013-03-21 16:29:00,32.0,9.8,30.00,NW,305,4.5,9.2,39,0.00,CLR,,0.00,WeatherDisplay:10.37,2013-03-21 21:29:00,
2013-03-21 16:31:00,32.0,9.8,30.00,WNW,302,3.9,8.1,39,0.00,CLR,,0.00,WeatherDisplay:10.37,2013-03-21 21:31:00,
2013-03-21 16:32:00,31.8,9.6,30.00,NNE,28,2.7,5.8,39,0.00,CLR,,0.00,WeatherDisplay:10.37,2013-03-21 21:32:00,
2013-03-21 16:33:00,31.9,9.7,30.00,West,270,3.6,5.7,39,0.00,CLR,,0.00,WeatherDisplay:10.37,2013-03-21 21:33:00,
2013-03-21 16:34:00,32.0,9.8,30.00,WSW,237,5.1,5.8,39,0.00,CLR,,0.00,WeatherDisplay:10.37,2013-03-21 21:34:00,
2013-03-21 16:36:00,31.9,9.7,30.00,West,267,4.4,8.1,39,0.00,CLR,,0.00,WeatherDisplay:10.37,2013-03-21 21:36:00,
2013-03-21 16:37:00,32.0,9.8,30.00,WSW,251,6.0,9.2,39,0.00,CLR,,0.00,WeatherDisplay:10.37,2013-03-21 21:37:00,
2013-03-21 16:38:00,31.9,9.7,30.00,WNW,285,5.1,8.1,39,0.00,CLR,,0.00,WeatherDisplay:10.37,2013-03-21 21:38:00,
2013-03-21 16:39:00,31.9,9.1,30.00,WSW,246,5.7,8.1,38,0.00,CLR,,0.00,WeatherDisplay:10.37,2013-03-21 21:39:00,
2013-03-21 16:41:00,31.8,9.0,30.00,NW,312,5.4,6.9,38,0.00,CLR,,0.00,WeatherDisplay:10.37,2013-03-21 21:41:00,
2013-03-21 16:42:00,31.7,9.0,30.00,West,261,3.9,6.9,38,0.00,CLR,,0.00,WeatherDisplay:10.37,2013-03-21 21:42:00,
2013-03-21 16:43:00,31.7,9.0,30.00,WNW,298,4.8,6.9,38,0.00,CLR,,0.00,WeatherDisplay:10.37,2013-03-21 21:43:00,
2013-03-21 16:44:00,31.6,9.4,30.00,SW,233,3.5,5.8,39,0.00,CLR,,0.00,WeatherDisplay:10.37,2013-03-21 21:44:00,
2013-03-21 16:46:00,31.6,9.4,30.00,WNW,296,4.2,5.8,39,0.00,CLR,,0.00,WeatherDisplay:10.37,2013-03-21 21:46:00,
2013-03-21 16:47:00,31.5,9.4,29.99,WSW,248,3.7,7.1,39,0.00,CLR,,0.00,WeatherDisplay:10.37,2013-03-21 21:47:00,
2013-03-21 16:48:00,31.5,9.4,29.99,West,268,2.7,6.9,39,0.00,CLR,,0.00,WeatherDisplay:10.37,2013-03-21 21:48:00,
2013-03-21 16:49:00,31.4,9.3,29.99,NW,308,5.2,6.9,39,0.00,CLR,,0.00,WeatherDisplay:10.37,2013-03-21 21:49:00,
2013-03-21 16:51:00,31.4,9.3,29.99,WNW,298,2.5,4.3,39,0.00,CLR,,0.00,WeatherDisplay:10.37,2013-03-21 21:51:00,
2013-03-21 16:52:00,31.4,8.7,29.99,WNW,296,5.1,9.2,38,0.00,CLR,,0.00,WeatherDisplay:10.37,2013-03-21 21:52:00,
2013-03-21 16:54:00,31.2,9.1,29.99,WNW,295,5.4,6.9,39,0.00,CLR,,0.00,WeatherDisplay:10.37,2013-03-21 21:54:00,
2013-03-21 16:55:00,31.0,8.9,29.99,NW,304,5.2,6.9,39,0.00,CLR,,0.00,WeatherDisplay:10.37,2013-03-21 21:55:00,
2013-03-21 16:57:00,30.9,8.8,29.99,WNW,288,4.1,6.0,39,0.00,CLR,,0.00,WeatherDisplay:10.37,2013-03-21 21:57:00,
2013-03-21 16:59:00,30.9,8.8,29.99,WNW,284,2.5,4.6,39,0.00,CLR,,0.00,WeatherDisplay:10.37,2013-03-21 21:59:00,
2013-03-21 17:00:00,30.9,8.8,29.99,WNW,291,4.4,6.4,39,0.00,CLR,,0.00,WeatherDisplay:10.37,2013-03-21 22:00:00,
2013-03-21 17:02:00,30.9,8.8,29.99,West,272,5.0,6.9,39,0.00,CLR,,0.00,WeatherDisplay:10.37,2013-03-21 22:02:00,
2013-03-21 17:03:00,30.8,8.7,29.99,SW,226,4.5,6.9,39,0.00,CLR,,0.00,WeatherDisplay:10.37,2013-03-21 22:03:00,
2013-03-21 17:04:00,30.8,8.7,29.99,NW,313,3.7,5.8,39,0.00,CLR,,0.00,WeatherDisplay:10.37,2013-03-21 22:04:00,
2013-03-21 17:05:00,30.9,8.8,29.99,WNW,289,3.8,6.9,39,0.00,CLR,,0.00,WeatherDisplay:10.37,2013-03-21 22:05:00,
2013-03-21 17:07:00,30.8,8.7,29.99,NW,304,3.5,5.8,39,0.00,CLR,,0.00,WeatherDisplay:10.37,2013-03-21 22:07:00,
2013-03-21 17:08:00,31.0,8.9,29.99,WNW,287,2.4,5.3,39,0.00,CLR,,0.00,WeatherDisplay:10.37,2013-03-21 22:08:00,
2013-03-21 17:10:00,31.0,8.9,29.99,WNW,291,3.3,5.8,39,0.00,CLR,,0.00,WeatherDisplay:10.37,2013-03-21 22:10:00,
2013-03-21 17:12:00,31.1,9.0,29.99,WSW,251,5.0,6.9,39,0.00,CLR,,0.00,WeatherDisplay:10.37,2013-03-21 22:12:00,
2013-03-21 17:13:00,30.9,8.8,29.99,NW,318,4.5,6.9,39,0.00,CLR,,0.00,WeatherDisplay:10.37,2013-03-21 22:13:00,
2013-03-21 17:15:00,30.9,8.2,29.99,WNW,301,5.9,8.1,38,0.00,CLR,,0.00,WeatherDisplay:10.37,2013-03-21 22:15:00,
2013-03-21 17:18:00,30.7,8.6,29.99,WSW,254,2.9,6.9,39,0.00,CLR,,0.00,WeatherDisplay:10.37,2013-03-21 22:18:00,
2013-03-21 17:21:00,30.6,8.5,29.99,NW,309,4.0,6.9,39,0.00,CLR,,0.00,WeatherDisplay:10.37,2013-03-21 22:21:00,
2013-03-21 17:23:00,30.5,8.4,29.99,NW,309,5.0,6.9,39,0.00,CLR,,0.00,WeatherDisplay:10.37,2013-03-21 22:23:00,
2013-03-21 17:24:00,30.5,8.4,29.99,SW,220,4.4,6.9,39,0.00,CLR,,0.00,WeatherDisplay:10.37,2013-03-21 22:24:00,
2013-03-21 17:26:00,30.6,8.5,29.99,West,280,4.5,5.8,39,0.00,CLR,,0.00,WeatherDisplay:10.37,2013-03-21 22:26:00,
2013-03-21 17:28:00,30.5,8.4,29.99,West,280,2.6,5.8,39,0.00,CLR,,0.00,WeatherDisplay:10.37,2013-03-21 22:28:00,
2013-03-21 17:29:00,30.5,9.0,29.99,WNW,282,3.5,5.8,40,0.00,CLR,,0.00,WeatherDisplay:10.37,2013-03-21 22:29:00,
2013-03-21 17:33:00,30.6,9.1,29.99,WSW,241,2.6,3.5,40,0.00,CLR,,0.00,WeatherDisplay:10.37,2013-03-21 22:33:00,
2013-03-21 17:34:00,30.7,9.2,29.99,NNW,344,2.3,5.8,40,0.00,CLR,,0.00,WeatherDisplay:10.37,2013-03-21 22:34:00,
2013-03-21 17:39:00,30.7,8.6,29.99,SW,230,3.9,6.9,39,0.00,CLR,,0.00,WeatherDisplay:10.37,2013-03-21 22:39:00,
2013-03-21 17:44:00,30.6,8.5,29.99,WNW,287,4.0,6.9,39,0.00,CLR,,0.00,WeatherDisplay:10.37,2013-03-21 22:44:00,
2013-03-21 17:49:00,30.3,8.8,29.99,NW,318,3.2,5.8,40,0.00,CLR,,0.00,WeatherDisplay:10.37,2013-03-21 22:49:00,
2013-03-21 17:50:00,30.3,8.8,29.99,NW,318,1.9,5.8,40,0.00,CLR,,0.00,WeatherDisplay:10.37,2013-03-21 22:50:00,
2013-03-21 17:54:00,30.3,8.8,29.99,NNW,333,2.6,4.6,40,0.00,CLR,,0.00,WeatherDisplay:10.37,2013-03-21 22:54:00,
2013-03-21 17:55:00,30.3,8.8,29.99,NW,304,3.7,4.6,40,0.00,CLR,,0.00,WeatherDisplay:10.37,2013-03-21 22:55:00,
2013-03-21 17:59:00,30.2,9.3,29.99,NW,325,1.8,4.5,41,0.00,CLR,,0.00,WeatherDisplay:10.37,2013-03-21 22:59:00,
2013-03-21 18:00:00,30.2,9.3,29.99,West,278,2.4,4.5,41,0.00,CLR,,0.00,WeatherDisplay:10.37,2013-03-21 23:00:00,
2013-03-21 18:04:00,30.0,8.6,29.99,NNW,340,2.4,5.8,40,0.00,CLR,,0.00,WeatherDisplay:10.37,2013-03-21 23:04:00,
2013-03-21 18:05:00,29.9,8.5,29.99,WSW,253,2.1,4.6,40,0.00,CLR,,0.00,WeatherDisplay:10.37,2013-03-21 23:05:00,
2013-03-21 18:09:00,29.8,8.9,29.99,WNW,295,2.2,2.8,41,0.00,CLR,,0.00,WeatherDisplay:10.37,2013-03-21 23:09:00,
2013-03-21 18:10:00,29.8,8.9,29.99,NW,323,2.2,4.6,41,0.00,CLR,,0.00,WeatherDisplay:10.37,2013-03-21 23:10:00,
2013-03-21 18:14:00,29.6,8.7,29.99,West,274,0.0,2.3,41,0.00,CLR,,0.00,WeatherDisplay:10.37,2013-03-21 23:14:00,
2013-03-21 18:15:00,29.6,8.7,29.99,WNW,289,1.6,5.8,41,0.00,CLR,,0.00,WeatherDisplay:10.37,2013-03-21 23:15:00,
2013-03-21 18:19:00,29.3,9.0,29.99,WNW,299,0.8,3.5,42,0.00,CLR,,0.00,WeatherDisplay:10.37,2013-03-21 23:19:00,
2013-03-21 18:20:00,29.3,9.0,29.99,West,268,2.8,5.8,42,0.00,CLR,,0.00,WeatherDisplay:10.37,2013-03-21 23:20:00,
2013-03-21 18:24:00,29.1,8.8,29.99,NNW,336,4.1,5.8,42,0.00,CLR,,0.00,WeatherDisplay:10.37,2013-03-21 23:24:00,
2013-03-21 18:25:00,29.1,8.8,29.99,NNW,336,3.0,4.6,42,0.00,CLR,,0.00,WeatherDisplay:10.37,2013-03-21 23:25:00,
2013-03-21 18:29:00,28.7,8.5,29.99,West,277,1.5,3.5,42,0.00,CLR,,0.00,WeatherDisplay:10.37,2013-03-21 23:29:00,
2013-03-21 18:30:00,28.6,8.4,29.99,West,277,0.2,2.3,42,0.00,CLR,,0.00,WeatherDisplay:10.37,2013-03-21 23:30:00,
2013-03-21 18:31:00,28.6,8.4,29.99,West,277,0.0,2.3,42,0.00,CLR,,0.00,WeatherDisplay:10.37,2013-03-21 23:31:00,
2013-03-21 18:35:00,28.1,7.9,29.99,WSW,258,0.4,5.9,42,0.00,CLR,,0.00,WeatherDisplay:10.37,2013-03-21 23:35:00,
2013-03-21 18:36:00,28.0,8.4,29.99,WNW,288,2.9,3.5,43,0.00,CLR,,0.00,WeatherDisplay:10.37,2013-03-21 23:36:00,
2013-03-21 18:40:00,27.4,7.8,29.99,NW,311,1.0,4.8,43,0.00,CLR,,0.00,WeatherDisplay:10.37,2013-03-21 23:40:00,
2013-03-21 18:41:00,27.3,7.7,29.99,West,263,2.1,5.8,43,0.00,CLR,,0.00,WeatherDisplay:10.37,2013-03-21 23:41:00,
2013-03-21 18:42:00,27.2,7.6,29.99,WNW,289,2.0,5.8,43,0.00,CLR,,0.00,WeatherDisplay:10.37,2013-03-21 23:42:00,
2013-03-21 18:45:00,27.0,8.0,29.99,WNW,291,0.0,0.0,44,0.00,CLR,,0.00,WeatherDisplay:10.37,2013-03-21 23:45:00,
2013-03-21 18:46:00,26.9,7.9,29.99,WNW,291,0.0,0.0,44,0.00,CLR,,0.00,WeatherDisplay:10.37,2013-03-21 23:46:00,
2013-03-21 18:47:00,26.8,8.3,29.99,WNW,291,0.0,0.0,45,0.00,CLR,,0.00,WeatherDisplay:10.37,2013-03-21 23:47:00,
2013-03-21 18:50:00,26.6,8.1,29.99,WNW,291,0.0,0.0,45,0.00,CLR,,0.00,WeatherDisplay:10.37,2013-03-21 23:50:00,
2013-03-21 18:52:00,26.5,8.0,29.99,WNW,291,0.0,0.0,45,0.00,CLR,,0.00,WeatherDisplay:10.37,2013-03-21 23:52:00,
2013-03-21 18:55:00,26.3,7.8,29.99,WNW,291,0.0,0.0,45,0.00,CLR,,0.00,WeatherDisplay:10.37,2013-03-21 23:55:00,
2013-03-21 18:57:00,26.2,8.2,29.99,WNW,291,0.0,0.0,46,0.00,CLR,,0.00,WeatherDisplay:10.37,2013-03-21 23:57:00,
2013-03-21 18:58:00,26.1,8.1,29.99,WNW,291,0.0,0.0,46,0.00,CLR,,0.00,WeatherDisplay:10.37,2013-03-21 23:58:00,
2013-03-21 19:00:00,26.0,8.0,29.99,WNW,291,0.0,0.0,46,0.00,CLR,,0.00,WeatherDisplay:10.37,2013-03-22 00:00:00,
2013-03-21 19:02:00,25.8,7.8,29.99,WNW,291,0.0,0.0,46,0.00,CLR,,0.00,WeatherDisplay:10.37,2013-03-22 00:02:00,
2013-03-21 19:03:00,25.9,8.4,29.99,WNW,291,0.0,0.0,47,0.00,CLR,,0.00,WeatherDisplay:10.37,2013-03-22 00:03:00,
2013-03-21 19:05:00,25.7,8.2,29.99,WNW,291,0.0,0.0,47,0.00,CLR,,0.00,WeatherDisplay:10.37,2013-03-22 00:05:00,
2013-03-21 19:07:00,25.6,8.1,29.99,WNW,291,0.0,0.0,47,0.00,CLR,,0.00,WeatherDisplay:10.37,2013-03-22 00:07:00,
2013-03-21 19:08:00,25.5,8.0,29.99,North,352,1.0,3.5,47,0.00,CLR,,0.00,WeatherDisplay:10.37,2013-03-22 00:08:00,
2013-03-21 19:10:00,25.4,7.9,29.99,WNW,284,0.6,1.1,47,0.00,CLR,,0.00,WeatherDisplay:10.37,2013-03-22 00:10:00,
2013-03-21 19:13:00,25.3,7.9,29.99,NNW,336,0.0,1.1,47,0.00,CLR,,0.00,WeatherDisplay:10.37,2013-03-22 00:13:00,
2013-03-21 19:15:00,25.2,8.2,29.99,NNW,336,0.0,0.0,48,0.00,CLR,,0.00,WeatherDisplay:10.37,2013-03-22 00:15:00,
2013-03-21 19:18:00,25.1,8.1,29.99,NNW,336,0.0,0.0,48,0.00,CLR,,0.00,WeatherDisplay:10.37,2013-03-22 00:18:00,
2013-03-21 19:21:00,25.0,8.0,29.99,NNW,336,0.0,0.0,48,0.00,CLR,,0.00,WeatherDisplay:10.37,2013-03-22 00:21:00,
2013-03-21 19:23:00,24.9,8.4,29.99,NNW,336,0.0,0.0,49,0.00,CLR,,0.00,WeatherDisplay:10.37,2013-03-22 00:23:00,
2013-03-21 19:24:00,24.9,8.4,29.99,NNW,336,0.0,0.0,49,0.00,CLR,,0.00,WeatherDisplay:10.37,2013-03-22 00:24:00,
2013-03-21 19:26:00,24.7,8.2,29.99,NNW,336,0.0,0.0,49,0.00,CLR,,0.00,WeatherDisplay:10.37,2013-03-22 00:26:00,
2013-03-21 19:28:00,24.7,8.2,30.00,NNW,336,0.0,0.0,49,0.00,CLR,,0.00,WeatherDisplay:10.37,2013-03-22 00:28:00,
2013-03-21 19:29:00,24.6,8.1,30.00,NNW,336,0.0,0.0,49,0.00,CLR,,0.00,WeatherDisplay:10.37,2013-03-22 00:29:00,
2013-03-21 19:31:00,24.5,8.0,30.00,NNW,336,0.0,0.0,49,0.00,CLR,,0.00,WeatherDisplay:10.37,2013-03-22 00:31:00,
2013-03-21 19:33:00,24.3,7.9,30.00,NNW,336,0.0,0.0,49,0.00,CLR,,0.00,WeatherDisplay:10.37,2013-03-22 00:33:00,
2013-03-21 19:34:00,24.3,7.9,30.00,NNW,336,0.0,0.0,49,0.00,CLR,,0.00,WeatherDisplay:10.37,2013-03-22 00:34:00,
2013-03-21 19:36:00,24.2,7.8,30.00,NNW,336,0.0,0.0,49,0.00,CLR,,0.00,WeatherDisplay:10.37,2013-03-22 00:36:00,
2013-03-21 19:39:00,24.0,8.0,30.00,NNW,336,0.0,0.0,50,0.00,CLR,,0.00,WeatherDisplay:10.37,2013-03-22 00:39:00,
2013-03-21 19:41:00,24.0,8.0,30.00,NNW,336,0.0,0.0,50,0.00,CLR,,0.00,WeatherDisplay:10.37,2013-03-22 00:41:00,
2013-03-21 19:44:00,23.8,7.8,30.00,NNW,336,0.0,0.0,50,0.00,CLR,,0.00,WeatherDisplay:10.37,2013-03-22 00:44:00,
2013-03-21 19:45:00,23.7,7.7,30.00,NNW,336,0.0,0.0,50,0.00,CLR,,0.00,WeatherDisplay:10.37,2013-03-22 00:45:00,
2013-03-21 19:46:00,23.6,7.7,30.00,NNW,336,0.0,0.0,50,0.00,CLR,,0.00,WeatherDisplay:10.37,2013-03-22 00:46:00,
2013-03-21 19:49:00,23.6,7.7,30.00,NNW,336,0.0,0.0,50,0.00,CLR,,0.00,WeatherDisplay:10.37,2013-03-22 00:49:00,
2013-03-21 19:50:00,23.5,7.6,30.00,NNW,336,0.0,0.0,50,0.00,CLR,,0.00,WeatherDisplay:10.37,2013-03-22 00:50:00,
2013-03-21 19:51:00,23.4,7.5,30.00,NNW,336,0.0,0.0,50,0.00,CLR,,0.00,WeatherDisplay:10.37,2013-03-22 00:51:00,
2013-03-21 19:54:00,23.3,7.8,30.00,NNW,336,0.0,0.0,51,0.00,CLR,,0.00,WeatherDisplay:10.37,2013-03-22 00:54:00,
2013-03-21 19:55:00,23.3,7.8,30.00,NNW,336,0.0,0.0,51,0.00,CLR,,0.00,WeatherDisplay:10.37,2013-03-22 00:55:00,
2013-03-21 19:57:00,23.2,7.7,30.00,NNW,336,0.0,0.0,51,0.00,CLR,,0.00,WeatherDisplay:10.37,2013-03-22 00:57:00,
2013-03-21 19:59:00,23.1,7.6,30.00,NNW,336,0.0,0.0,51,0.00,CLR,,0.00,WeatherDisplay:10.37,2013-03-22 00:59:00,
2013-03-21 20:00:00,23.0,7.5,30.00,NNW,336,0.0,0.0,51,0.00,CLR,,0.00,WeatherDisplay:10.37,2013-03-22 01:00:00,
2013-03-21 20:03:00,22.9,7.9,30.00,NNW,336,0.0,0.0,52,0.00,CLR,,0.00,WeatherDisplay:10.37,2013-03-22 01:03:00,
2013-03-21 20:04:00,22.9,7.9,30.00,NNW,336,0.0,0.0,52,0.00,CLR,,0.00,WeatherDisplay:10.37,2013-03-22 01:04:00,
2013-03-21 20:05:00,22.8,7.8,30.00,NNW,336,0.0,0.0,52,0.00,CLR,,0.00,WeatherDisplay:10.37,2013-03-22 01:05:00,
2013-03-21 20:09:00,22.6,7.6,30.00,NNW,336,0.0,0.0,52,0.00,CLR,,0.00,WeatherDisplay:10.37,2013-03-22 01:09:00,
2013-03-21 20:10:00,22.4,7.4,30.00,NNW,336,0.0,0.0,52,0.00,CLR,,0.00,WeatherDisplay:10.37,2013-03-22 01:10:00,
2013-03-21 20:14:00,22.2,7.6,30.00,NNW,336,0.0,0.0,53,0.00,CLR,,0.00,WeatherDisplay:10.37,2013-03-22 01:14:00,
2013-03-21 20:15:00,22.0,7.5,30.00,NNW,336,0.0,0.0,53,0.00,CLR,,0.00,WeatherDisplay:10.37,2013-03-22 01:15:00,
2013-03-21 20:19:00,21.8,7.7,30.00,NNW,336,0.0,0.0,54,0.00,CLR,,0.00,WeatherDisplay:10.37,2013-03-22 01:19:00,
2013-03-21 20:21:00,21.6,7.5,30.00,NNW,336,0.0,0.0,54,0.00,CLR,,0.00,WeatherDisplay:10.37,2013-03-22 01:21:00,
2013-03-21 20:24:00,21.4,7.3,30.00,NNW,336,0.0,0.0,54,0.00,CLR,,0.00,WeatherDisplay:10.37,2013-03-22 01:24:00,
2013-03-21 20:25:00,21.4,7.3,30.00,NNW,336,0.0,0.0,54,0.00,CLR,,0.00,WeatherDisplay:10.37,2013-03-22 01:25:00,
2013-03-21 20:27:00,21.2,7.1,30.00,NNW,336,0.0,0.0,54,0.00,CLR,,0.00,WeatherDisplay:10.37,2013-03-22 01:27:00,
2013-03-21 20:29:00,21.0,6.9,30.00,NNW,336,0.0,0.0,54,0.00,CLR,,0.00,WeatherDisplay:10.37,2013-03-22 01:29:00,
2013-03-21 20:30:00,21.0,7.3,30.00,NNW,336,0.0,0.0,55,0.00,CLR,,0.00,WeatherDisplay:10.37,2013-03-22 01:30:00,
2013-03-21 20:32:00,20.8,7.2,30.00,NNW,336,0.0,0.0,55,0.00,CLR,,0.00,WeatherDisplay:10.37,2013-03-22 01:32:00,
2013-03-21 20:34:00,20.6,7.0,30.00,NNW,336,0.0,0.0,55,0.00,CLR,,0.00,WeatherDisplay:10.37,2013-03-22 01:34:00,
2013-03-21 20:35:00,20.5,6.9,30.00,NNW,336,0.0,0.0,55,0.00,CLR,,0.00,WeatherDisplay:10.37,2013-03-22 01:35:00,
2013-03-21 20:37:00,20.5,6.9,30.00,NNW,336,0.0,0.0,55,0.00,CLR,,0.00,WeatherDisplay:10.37,2013-03-22 01:37:00,
2013-03-21 20:39:00,20.3,7.1,30.00,NNW,336,0.0,0.0,56,0.00,CLR,,0.00,WeatherDisplay:10.37,2013-03-22 01:39:00,
2013-03-21 20:40:00,20.3,7.1,30.00,NNW,336,0.0,0.0,56,0.00,CLR,,0.00,WeatherDisplay:10.37,2013-03-22 01:40:00,
2013-03-21 20:43:00,20.0,6.8,30.01,NNW,336,0.0,0.0,56,0.00,CLR,,0.00,WeatherDisplay:10.37,2013-03-22 01:43:00,
2013-03-21 20:44:00,20.0,6.8,30.01,NNW,336,0.0,0.0,56,0.00,CLR,,0.00,WeatherDisplay:10.37,2013-03-22 01:44:00,
2013-03-21 20:45:00,20.0,6.8,30.01,NNW,336,0.0,0.0,56,0.00,CLR,,0.00,WeatherDisplay:10.37,2013-03-22 01:45:00,
2013-03-21 20:48:00,19.7,6.5,30.01,NNW,336,0.0,0.0,56,0.00,CLR,,0.00,WeatherDisplay:10.37,2013-03-22 01:48:00,
2013-03-21 20:49:00,19.6,6.4,30.01,NNW,336,0.0,0.0,56,0.00,CLR,,0.00,WeatherDisplay:10.37,2013-03-22 01:49:00,
2013-03-21 20:50:00,19.7,6.5,30.01,NNW,336,0.0,0.0,56,0.00,CLR,,0.00,WeatherDisplay:10.37,2013-03-22 01:50:00,
2013-03-21 20:53:00,19.4,6.6,30.01,NNW,336,0.0,0.0,57,0.00,CLR,,0.00,WeatherDisplay:10.37,2013-03-22 01:53:00,
2013-03-21 20:55:00,19.3,6.5,30.01,NNW,336,0.0,0.0,57,0.00,CLR,,0.00,WeatherDisplay:10.37,2013-03-22 01:55:00,
2013-03-21 20:58:00,19.1,6.3,30.01,NNW,336,0.0,0.0,57,0.00,CLR,,0.00,WeatherDisplay:10.37,2013-03-22 01:58:00,
2013-03-21 21:00:00,19.0,6.6,30.01,NNW,336,0.0,0.0,58,0.00,CLR,,0.00,WeatherDisplay:10.37,2013-03-22 02:00:00,
2013-03-21 21:01:00,18.9,6.5,30.01,NNW,336,0.0,0.0,58,0.00,CLR,,0.00,WeatherDisplay:10.37,2013-03-22 02:01:00,
2013-03-21 21:03:00,18.8,6.4,30.01,NNW,336,0.0,0.0,58,0.00,CLR,,0.00,WeatherDisplay:10.37,2013-03-22 02:03:00,
2013-03-21 21:05:00,18.6,6.3,30.01,NNW,336,0.0,0.0,58,0.00,CLR,,0.00,WeatherDisplay:10.37,2013-03-22 02:05:00,
2013-03-21 21:07:00,18.5,6.2,30.01,NNW,336,0.0,0.0,58,0.00,CLR,,0.00,WeatherDisplay:10.37,2013-03-22 02:07:00,
2013-03-21 21:08:00,18.4,6.1,30.01,NNW,336,0.0,0.0,58,0.00,CLR,,0.00,WeatherDisplay:10.37,2013-03-22 02:08:00,
2013-03-21 21:10:00,18.4,6.1,30.01,NNW,336,0.0,0.0,58,0.00,CLR,,0.00,WeatherDisplay:10.37,2013-03-22 02:10:00,
2013-03-21 21:12:00,18.1,5.8,30.01,NNW,336,0.0,0.0,58,0.00,CLR,,0.00,WeatherDisplay:10.37,2013-03-22 02:12:00,
2013-03-21 21:13:00,18.2,5.9,30.01,NNW,336,0.0,0.0,58,0.00,CLR,,0.00,WeatherDisplay:10.37,2013-03-22 02:13:00,
2013-03-21 21:15:00,18.0,6.1,30.01,NNW,336,0.0,0.0,59,0.00,CLR,,0.00,WeatherDisplay:10.37,2013-03-22 02:15:00,
2013-03-21 21:17:00,17.9,6.0,30.01,NNW,336,0.0,0.0,59,0.00,CLR,,0.00,WeatherDisplay:10.37,2013-03-22 02:17:00,
2013-03-21 21:18:00,17.8,5.9,30.01,NNW,336,0.0,0.0,59,0.00,CLR,,0.00,WeatherDisplay:10.37,2013-03-22 02:18:00,
2013-03-21 21:20:00,17.7,5.8,30.01,NNW,336,0.0,0.0,59,0.00,CLR,,0.00,WeatherDisplay:10.37,2013-03-22 02:20:00,
2013-03-21 21:22:00,17.6,5.7,30.01,NNW,336,0.0,0.0,59,0.00,CLR,,0.00,WeatherDisplay:10.37,2013-03-22 02:22:00,
2013-03-21 21:24:00,17.5,6.0,30.01,NNW,336,0.0,0.0,60,0.00,CLR,,0.00,WeatherDisplay:10.37,2013-03-22 02:24:00,
2013-03-21 21:25:00,17.4,5.9,30.01,NNW,336,0.0,0.0,60,0.00,CLR,,0.00,WeatherDisplay:10.37,2013-03-22 02:25:00,
2013-03-21 21:28:00,17.3,5.8,30.01,NNW,336,0.0,0.0,60,0.00,CLR,,0.00,WeatherDisplay:10.37,2013-03-22 02:28:00,
2013-03-21 21:29:00,17.2,5.7,30.01,NNW,336,0.0,0.0,60,0.00,CLR,,0.00,WeatherDisplay:10.37,2013-03-22 02:29:00,
2013-03-21 21:30:00,17.1,5.6,30.01,NNW,336,0.0,0.0,60,0.00,CLR,,0.00,WeatherDisplay:10.37,2013-03-22 02:30:00,
2013-03-21 21:33:00,16.8,5.3,30.01,NNW,336,0.0,0.0,60,0.00,CLR,,0.00,WeatherDisplay:10.37,2013-03-22 02:33:00,
2013-03-21 21:34:00,16.8,5.7,30.01,NNW,336,0.0,0.0,61,0.00,CLR,,0.00,WeatherDisplay:10.37,2013-03-22 02:34:00,
2013-03-21 21:35:00,16.7,5.6,30.01,NNW,336,0.0,0.0,61,0.00,CLR,,0.00,WeatherDisplay:10.37,2013-03-22 02:35:00,
2013-03-21 21:36:00,16.7,5.6,30.01,NNW,336,0.0,0.0,61,0.00,CLR,,0.00,WeatherDisplay:10.37,2013-03-22 02:36:00,
2013-03-21 21:38:00,16.6,5.5,30.01,NNW,336,0.0,0.0,61,0.00,CLR,,0.00,WeatherDisplay:10.37,2013-03-22 02:38:00,
2013-03-21 21:39:00,16.6,5.5,30.01,NNW,336,0.0,0.0,61,0.00,CLR,,0.00,WeatherDisplay:10.37,2013-03-22 02:39:00,
2013-03-21 21:40:00,16.6,5.5,30.01,NNW,336,0.0,0.0,61,0.00,CLR,,0.00,WeatherDisplay:10.37,2013-03-22 02:40:00,
2013-03-21 21:41:00,16.4,5.3,30.01,NNW,336,0.0,0.0,61,0.00,CLR,,0.00,WeatherDisplay:10.37,2013-03-22 02:41:00,
2013-03-21 21:44:00,16.2,5.1,30.01,NNW,336,0.0,0.0,61,0.00,CLR,,0.00,WeatherDisplay:10.37,2013-03-22 02:44:00,
2013-03-21 21:45:00,16.3,5.5,30.01,NNW,336,0.0,0.0,62,0.00,CLR,,0.00,WeatherDisplay:10.37,2013-03-22 02:45:00,
2013-03-21 21:46:00,16.2,5.5,30.01,NNW,336,0.0,0.0,62,0.00,CLR,,0.00,WeatherDisplay:10.37,2013-03-22 02:46:00,
2013-03-21 21:47:00,16.1,5.4,30.01,NNW,336,0.0,0.0,62,0.00,CLR,,0.00,WeatherDisplay:10.37,2013-03-22 02:47:00,
2013-03-21 21:49:00,16.1,5.4,30.01,NNW,336,0.0,0.0,62,0.00,CLR,,0.00,WeatherDisplay:10.37,2013-03-22 02:49:00,
2013-03-21 21:50:00,16.1,5.4,30.01,NNW,336,0.0,0.0,62,0.00,CLR,,0.00,WeatherDisplay:10.37,2013-03-22 02:50:00,
2013-03-21 21:51:00,15.9,5.2,30.01,NNW,336,0.0,0.0,62,0.00,CLR,,0.00,WeatherDisplay:10.37,2013-03-22 02:51:00,
2013-03-21 21:54:00,15.8,5.1,30.01,NNW,336,0.0,0.0,62,0.00,CLR,,0.00,WeatherDisplay:10.37,2013-03-22 02:54:00,
2013-03-21 21:55:00,15.8,5.1,30.01,NNW,336,0.0,0.0,62,0.00,CLR,,0.00,WeatherDisplay:10.37,2013-03-22 02:55:00,
2013-03-21 21:56:00,15.6,4.9,30.01,NNW,336,0.0,0.0,62,0.00,CLR,,0.00,WeatherDisplay:10.37,2013-03-22 02:56:00,
2013-03-21 21:59:00,15.4,4.7,30.01,NNW,336,0.0,0.0,62,0.00,CLR,,0.00,WeatherDisplay:10.37,2013-03-22 02:59:00,
2013-03-21 22:00:00,15.5,4.8,30.01,NNW,336,0.0,0.0,62,0.00,CLR,,0.00,WeatherDisplay:10.37,2013-03-22 03:00:00,
2013-03-21 22:02:00,15.4,4.7,30.01,NNW,336,0.0,0.0,62,0.00,CLR,,0.00,WeatherDisplay:10.37,2013-03-22 03:02:00,
2013-03-21 22:04:00,15.2,4.5,30.01,NNW,336,0.0,0.0,62,0.00,CLR,,0.00,WeatherDisplay:10.37,2013-03-22 03:04:00,
2013-03-21 22:05:00,15.0,4.3,30.01,NNW,336,0.0,0.0,62,0.00,CLR,,0.00,WeatherDisplay:10.37,2013-03-22 03:05:00,
2013-03-21 22:07:00,15.0,4.7,30.01,NNW,336,0.0,0.0,63,0.00,CLR,,0.00,WeatherDisplay:10.37,2013-03-22 03:07:00,
2013-03-21 22:09:00,14.9,4.6,30.01,NNW,336,0.0,0.0,63,0.00,CLR,,0.00,WeatherDisplay:10.37,2013-03-22 03:09:00,
2013-03-21 22:10:00,14.8,4.5,30.01,NNW,336,0.0,0.0,63,0.00,CLR,,0.00,WeatherDisplay:10.37,2013-03-22 03:10:00,
2013-03-21 22:12:00,14.7,4.4,30.01,NNW,336,0.0,0.0,63,0.00,CLR,,0.00,WeatherDisplay:10.37,2013-03-22 03:12:00,
2013-03-21 22:15:00,14.7,4.7,30.02,NNW,336,0.0,0.0,64,0.00,CLR,,0.00,WeatherDisplay:10.37,2013-03-22 03:15:00,
2013-03-21 22:17:00,14.6,4.6,30.02,NNW,336,0.0,0.0,64,0.00,CLR,,0.00,WeatherDisplay:10.37,2013-03-22 03:17:00,
2013-03-21 22:20:00,14.3,4.3,30.02,NNW,336,0.0,0.0,64,0.00,CLR,,0.00,WeatherDisplay:10.37,2013-03-22 03:20:00,
2013-03-21 22:21:00,14.3,4.3,30.02,NNW,336,0.0,0.0,64,0.00,CLR,,0.00,WeatherDisplay:10.37,2013-03-22 03:21:00,
2013-03-21 22:22:00,14.3,4.3,30.02,NNW,336,0.0,0.0,64,0.00,CLR,,0.00,WeatherDisplay:10.37,2013-03-22 03:22:00,
2013-03-21 22:25:00,14.1,4.1,30.01,NNW,336,0.0,0.0,64,0.00,CLR,,0.00,WeatherDisplay:10.37,2013-03-22 03:25:00,
2013-03-21 22:27:00,14.0,4.1,30.01,NNW,336,0.0,0.0,64,0.00,CLR,,0.00,WeatherDisplay:10.37,2013-03-22 03:27:00,
2013-03-21 22:28:00,14.0,4.1,30.01,NNW,336,0.0,0.0,64,0.00,CLR,,0.00,WeatherDisplay:10.37,2013-03-22 03:28:00,
2013-03-21 22:30:00,14.0,4.1,30.01,NNW,336,0.0,0.0,64,0.00,CLR,,0.00,WeatherDisplay:10.37,2013-03-22 03:30:00,
2013-03-21 22:33:00,13.8,3.9,30.01,NNW,336,0.0,0.0,64,0.00,CLR,,0.00,WeatherDisplay:10.37,2013-03-22 03:33:00,
2013-03-21 22:35:00,13.6,3.7,30.01,NNW,336,0.0,0.0,64,0.00,CLR,,0.00,WeatherDisplay:10.37,2013-03-22 03:35:00,
2013-03-21 22:38:00,13.6,3.7,30.01,NNW,336,0.0,0.0,64,0.00,CLR,,0.00,WeatherDisplay:10.37,2013-03-22 03:38:00,
2013-03-21 22:40:00,13.5,3.6,30.01,NNW,336,0.0,0.0,64,0.00,CLR,,0.00,WeatherDisplay:10.37,2013-03-22 03:40:00,
2013-03-21 22:43:00,13.5,3.6,30.01,NNW,336,0.0,0.0,64,0.00,CLR,,0.00,WeatherDisplay:10.37,2013-03-22 03:43:00,
2013-03-21 22:46:00,13.2,3.6,30.01,NNW,336,0.0,0.0,65,0.00,CLR,,0.00,WeatherDisplay:10.37,2013-03-22 03:46:00,
2013-03-21 22:48:00,13.2,3.6,30.01,NNW,336,0.0,0.0,65,0.00,CLR,,0.00,WeatherDisplay:10.37,2013-03-22 03:48:00,
2013-03-21 22:52:00,13.0,3.8,30.01,NNW,336,0.0,0.0,66,0.00,CLR,,0.00,WeatherDisplay:10.37,2013-03-22 03:52:00,
2013-03-21 22:53:00,13.0,3.8,30.01,NNW,336,0.0,0.0,66,0.00,CLR,,0.00,WeatherDisplay:10.37,2013-03-22 03:53:00,
2013-03-21 22:54:00,12.9,3.7,30.01,NNW,336,0.0,0.0,66,0.00,CLR,,0.00,WeatherDisplay:10.37,2013-03-22 03:54:00,
2013-03-21 22:57:00,12.9,3.7,30.01,NNW,336,0.0,0.0,66,0.00,CLR,,0.00,WeatherDisplay:10.37,2013-03-22 03:57:00,
2013-03-21 22:58:00,12.8,3.6,30.01,NNW,336,0.0,0.0,66,0.00,CLR,,0.00,WeatherDisplay:10.37,2013-03-22 03:58:00,
2013-03-21 22:59:00,12.8,3.6,30.01,NNW,336,0.0,0.0,66,0.00,CLR,,0.00,WeatherDisplay:10.37,2013-03-22 03:59:00,
2013-03-21 23:00:00,12.7,3.5,30.01,NNW,336,0.0,0.0,66,0.00,CLR,,0.00,WeatherDisplay:10.37,2013-03-22 04:00:00,
2013-03-21 23:01:00,12.6,3.4,30.01,NNW,336,0.0,0.0,66,0.00,CLR,,0.00,WeatherDisplay:10.37,2013-03-22 04:01:00,
2013-03-21 23:05:00,12.6,3.4,30.00,NNW,336,0.0,0.0,66,0.00,CLR,,0.00,WeatherDisplay:10.37,2013-03-22 04:05:00,
2013-03-21 23:06:00,12.7,3.5,30.00,NNW,336,0.0,0.0,66,0.00,CLR,,0.00,WeatherDisplay:10.37,2013-03-22 04:06:00,
2013-03-21 23:07:00,12.5,3.3,30.01,NNW,336,0.0,0.0,66,0.00,CLR,,0.00,WeatherDisplay:10.37,2013-03-22 04:07:00,
2013-03-21 23:10:00,12.3,3.1,30.01,NNW,336,0.0,0.0,66,0.00,CLR,,0.00,WeatherDisplay:10.37,2013-03-22 04:10:00,
2013-03-21 23:11:00,12.5,3.3,30.01,NNW,336,0.0,0.0,66,0.00,CLR,,0.00,WeatherDisplay:10.37,2013-03-22 04:11:00,
2013-03-21 23:12:00,12.3,3.1,30.01,NNW,336,0.0,0.0,66,0.00,CLR,,0.00,WeatherDisplay:10.37,2013-03-22 04:12:00,
2013-03-21 23:16:00,12.2,3.3,30.00,NNW,336,0.0,0.0,67,0.00,CLR,,0.00,WeatherDisplay:10.37,2013-03-22 04:16:00,
2013-03-21 23:17:00,12.2,3.3,30.01,NNW,336,0.0,0.0,67,0.00,CLR,,0.00,WeatherDisplay:10.37,2013-03-22 04:17:00,
2013-03-21 23:21:00,11.9,3.0,30.00,NNW,336,0.0,0.0,67,0.00,CLR,,0.00,WeatherDisplay:10.37,2013-03-22 04:21:00,
2013-03-21 23:22:00,12.0,3.1,30.00,NNW,336,0.0,0.0,67,0.00,CLR,,0.00,WeatherDisplay:10.37,2013-03-22 04:22:00,
2013-03-21 23:26:00,11.8,3.3,30.00,NNW,336,0.0,0.0,68,0.00,CLR,,0.00,WeatherDisplay:10.37,2013-03-22 04:26:00,
2013-03-21 23:27:00,11.7,3.2,30.00,NNW,336,0.0,0.0,68,0.00,CLR,,0.00,WeatherDisplay:10.37,2013-03-22 04:27:00,
2013-03-21 23:28:00,11.8,3.3,30.00,NNW,336,0.0,0.0,68,0.00,CLR,,0.00,WeatherDisplay:10.37,2013-03-22 04:28:00,
2013-03-21 23:31:00,11.7,3.5,30.01,NNW,336,0.0,0.0,69,0.00,CLR,,0.00,WeatherDisplay:10.37,2013-03-22 04:31:00,
2013-03-21 23:32:00,11.9,3.7,30.01,NNW,336,0.0,0.0,69,0.00,CLR,,0.00,WeatherDisplay:10.37,2013-03-22 04:32:00,
2013-03-21 23:33:00,11.6,3.4,30.00,NNW,336,0.0,0.0,69,0.00,CLR,,0.00,WeatherDisplay:10.37,2013-03-22 04:33:00,
2013-03-21 23:37:00,11.5,3.3,30.00,NNW,336,0.0,0.0,69,0.00,CLR,,0.00,WeatherDisplay:10.37,2013-03-22 04:37:00,
2013-03-21 23:38:00,11.6,3.4,30.00,NNW,336,0.0,0.0,69,0.00,CLR,,0.00,WeatherDisplay:10.37,2013-03-22 04:38:00,
2013-03-21 23:42:00,11.6,3.4,30.00,NNW,336,0.0,0.0,69,0.00,CLR,,0.00,WeatherDisplay:10.37,2013-03-22 04:42:00,
2013-03-21 23:43:00,11.5,3.3,30.00,NNW,336,0.0,0.0,69,0.00,CLR,,0.00,WeatherDisplay:10.37,2013-03-22 04:43:00,
2013-03-21 23:47:00,11.5,3.0,30.00,NNW,336,0.0,0.0,68,0.00,CLR,,0.00,WeatherDisplay:10.37,2013-03-22 04:47:00,
2013-03-21 23:48:00,11.4,2.9,30.00,NNW,336,0.0,0.0,68,0.00,CLR,,0.00,WeatherDisplay:10.37,2013-03-22 04:48:00,
2013-03-21 23:53:00,11.2,3.0,30.01,NNW,336,0.0,0.0,69,0.00,CLR,,0.00,WeatherDisplay:10.37,2013-03-22 04:53:00,
2013-03-21 23:58:00,11.1,2.9,30.00,NNW,336,0.0,0.0,69,0.00,CLR,,0.00,WeatherDisplay:10.37,2013-03-22 04:58:00,
2013-03-21 23:59:00,11.0,2.8,30.00,NNW,336,0.0,0.0,69,0.00,CLR,,0.00,WeatherDisplay:10.37,2013-03-22 04:59:00,